UAL97 YBBN-KSFO
Flight info
| Callsign | UAL97 |
|---|---|
| Flight time | N/A |
| Altitude | 33000 |
| Route | BIXAD A598 RIPNA/N0499F310 DCT 08S165E/N0500F330 04S170E 03N180E/N0491F350 10N170W 15N160W 20N150W/N0474F370 23N145W DCT FIZEL DCT 30N134W 33N130W DCT CINNY |
| Aircraft | B772/H-SDE2E3FGHIJ5LORVWXY/LB1D1 |
Departure
| Time | 2026-04-27 02:07 |
|---|---|
| Airport | Brisbane International Airport (YBBN) |
Arrival
| Time | N/A |
|---|---|
| Airport | San Francisco International Airport (KSFO) |
| Time | Latitude | Longitude | Altitude | Speed | Heading |
|---|---|---|---|---|---|
| 2026-04-27 01:08 | -27.40409 | 153.11096 | 29 ft | 0 kts | 297° |
| 2026-04-27 01:44 | -27.40410 | 153.11096 | 28 ft | 1 kts | 297° |
| 2026-04-27 01:44 | -27.40416 | 153.11112 | 28 ft | 2 kts | 297° |
| 2026-04-27 01:45 | -27.40423 | 153.11125 | 28 ft | 2 kts | 297° |
| 2026-04-27 01:45 | -27.40428 | 153.11136 | 28 ft | 2 kts | 297° |
| 2026-04-27 01:45 | -27.40433 | 153.11151 | 28 ft | 2 kts | 272° |
| 2026-04-27 01:45 | -27.40431 | 153.11168 | 28 ft | 2 kts | 252° |
| 2026-04-27 01:46 | -27.40425 | 153.11183 | 28 ft | 2 kts | 231° |
| 2026-04-27 01:46 | -27.40414 | 153.11194 | 28 ft | 1 kts | 211° |
| 2026-04-27 01:46 | -27.40408 | 153.11197 | 28 ft | 0 kts | 206° |
| 2026-04-27 01:46 | -27.40408 | 153.11198 | 28 ft | 0 kts | 206° |
| 2026-04-27 01:49 | -27.40410 | 153.11197 | 28 ft | 1 kts | 206° |
| 2026-04-27 01:49 | -27.40432 | 153.11185 | 28 ft | 5 kts | 207° |
| 2026-04-27 01:50 | -27.40467 | 153.11163 | 28 ft | 5 kts | 207° |
| 2026-04-27 01:50 | -27.40505 | 153.11145 | 28 ft | 5 kts | 193° |
| 2026-04-27 01:50 | -27.40542 | 153.11159 | 28 ft | 6 kts | 135° |
| 2026-04-27 01:50 | -27.40570 | 153.11211 | 28 ft | 8 kts | 117° |
| 2026-04-27 01:51 | -27.40581 | 153.11273 | 28 ft | 8 kts | 66° |
| 2026-04-27 01:51 | -27.40534 | 153.11311 | 28 ft | 10 kts | 28° |
| 2026-04-27 01:51 | -27.40462 | 153.11354 | 28 ft | 12 kts | 26° |
| 2026-04-27 01:51 | -27.40386 | 153.11395 | 28 ft | 12 kts | 26° |
| 2026-04-27 01:52 | -27.40310 | 153.11438 | 28 ft | 12 kts | 27° |
| 2026-04-27 01:52 | -27.40228 | 153.11485 | 28 ft | 14 kts | 27° |
| 2026-04-27 01:52 | -27.40126 | 153.11545 | 28 ft | 16 kts | 27° |
| 2026-04-27 01:52 | -27.40025 | 153.11603 | 28 ft | 16 kts | 27° |
| 2026-04-27 01:53 | -27.39926 | 153.11659 | 28 ft | 15 kts | 27° |
| 2026-04-27 01:53 | -27.39831 | 153.11713 | 28 ft | 15 kts | 27° |
| 2026-04-27 01:53 | -27.39738 | 153.11766 | 28 ft | 14 kts | 27° |
| 2026-04-27 01:53 | -27.39648 | 153.11818 | 28 ft | 14 kts | 27° |
| 2026-04-27 01:54 | -27.39559 | 153.11870 | 28 ft | 15 kts | 27° |
| 2026-04-27 01:54 | -27.39457 | 153.11928 | 28 ft | 17 kts | 27° |
| 2026-04-27 01:54 | -27.39344 | 153.11992 | 28 ft | 19 kts | 27° |
| 2026-04-27 01:54 | -27.39224 | 153.12061 | 28 ft | 19 kts | 27° |
| 2026-04-27 01:55 | -27.39108 | 153.12126 | 28 ft | 18 kts | 27° |
| 2026-04-27 01:55 | -27.38998 | 153.12189 | 28 ft | 17 kts | 27° |
| 2026-04-27 01:55 | -27.38892 | 153.12250 | 28 ft | 16 kts | 27° |
| 2026-04-27 01:55 | -27.38790 | 153.12309 | 28 ft | 16 kts | 27° |
| 2026-04-27 01:56 | -27.38594 | 153.12421 | 28 ft | 15 kts | 27° |
| 2026-04-27 01:56 | -27.38500 | 153.12474 | 28 ft | 14 kts | 27° |
| 2026-04-27 01:56 | -27.38411 | 153.12524 | 28 ft | 14 kts | 27° |
| 2026-04-27 01:57 | -27.38322 | 153.12576 | 28 ft | 14 kts | 27° |
| 2026-04-27 01:57 | -27.38235 | 153.12625 | 28 ft | 14 kts | 27° |
| 2026-04-27 01:57 | -27.38136 | 153.12683 | 28 ft | 16 kts | 27° |
| 2026-04-27 01:57 | -27.38038 | 153.12738 | 28 ft | 12 kts | 27° |
| 2026-04-27 01:58 | -27.37981 | 153.12769 | 28 ft | 8 kts | 13° |
| 2026-04-27 01:58 | -27.37934 | 153.12730 | 28 ft | 10 kts | 301° |
| 2026-04-27 01:58 | -27.37893 | 153.12645 | 28 ft | 14 kts | 297° |
| 2026-04-27 01:58 | -27.37843 | 153.12534 | 28 ft | 17 kts | 297° |
| 2026-04-27 01:59 | -27.37789 | 153.12413 | 28 ft | 17 kts | 297° |
| 2026-04-27 01:59 | -27.37736 | 153.12297 | 28 ft | 16 kts | 297° |
| 2026-04-27 01:59 | -27.37679 | 153.12172 | 28 ft | 18 kts | 297° |
| 2026-04-27 01:59 | -27.37617 | 153.12035 | 28 ft | 20 kts | 297° |
| 2026-04-27 02:00 | -27.37551 | 153.11890 | 28 ft | 20 kts | 297° |
| 2026-04-27 02:00 | -27.37489 | 153.11755 | 28 ft | 19 kts | 297° |
| 2026-04-27 02:00 | -27.37430 | 153.11626 | 28 ft | 16 kts | 297° |
| 2026-04-27 02:00 | -27.37384 | 153.11551 | 28 ft | 9 kts | 342° |
| 2026-04-27 02:01 | -27.37318 | 153.11572 | 28 ft | 10 kts | 26° |
| 2026-04-27 02:01 | -27.37244 | 153.11614 | 28 ft | 13 kts | 27° |
| 2026-04-27 02:01 | -27.37153 | 153.11667 | 28 ft | 15 kts | 27° |
| 2026-04-27 02:01 | -27.37045 | 153.11728 | 28 ft | 18 kts | 27° |
| 2026-04-27 02:02 | -27.36936 | 153.11791 | 28 ft | 17 kts | 27° |
| 2026-04-27 02:02 | -27.36830 | 153.11852 | 28 ft | 16 kts | 27° |
| 2026-04-27 02:02 | -27.36722 | 153.11912 | 28 ft | 17 kts | 27° |
| 2026-04-27 02:02 | -27.36611 | 153.11977 | 28 ft | 18 kts | 27° |
| 2026-04-27 02:03 | -27.36498 | 153.12041 | 28 ft | 18 kts | 27° |
| 2026-04-27 02:03 | -27.36381 | 153.12108 | 28 ft | 18 kts | 27° |
| 2026-04-27 02:03 | -27.36260 | 153.12177 | 28 ft | 19 kts | 27° |
| 2026-04-27 02:03 | -27.36140 | 153.12245 | 28 ft | 19 kts | 27° |
| 2026-04-27 02:04 | -27.36022 | 153.12314 | 28 ft | 18 kts | 27° |
| 2026-04-27 02:04 | -27.35915 | 153.12375 | 28 ft | 13 kts | 26° |
| 2026-04-27 02:04 | -27.35836 | 153.12363 | 28 ft | 12 kts | 326° |
| 2026-04-27 02:04 | -27.35767 | 153.12309 | 28 ft | 12 kts | 325° |
| 2026-04-27 02:05 | -27.35699 | 153.12251 | 28 ft | 12 kts | 310° |
| 2026-04-27 02:05 | -27.35681 | 153.12184 | 27 ft | 7 kts | 234° |
| 2026-04-27 02:05 | -27.35715 | 153.12161 | 27 ft | 5 kts | 207° |
| 2026-04-27 02:05 | -27.35766 | 153.12132 | 27 ft | 17 kts | 207° |
| 2026-04-27 02:06 | -27.36067 | 153.11961 | 25 ft | 78 kts | 207° |
| 2026-04-27 02:06 | -27.36709 | 153.11594 | 26 ft | 128 kts | 207° |
| 2026-04-27 02:06 | -27.37642 | 153.11064 | 34 ft | 169 kts | 205° |
| 2026-04-27 02:06 | -27.38742 | 153.10428 | 353 ft | 176 kts | 205° |
| 2026-04-27 02:07 | -27.39810 | 153.09778 | 929 ft | 178 kts | 205° |
| 2026-04-27 02:07 | -27.40942 | 153.09148 | 1241 ft | 189 kts | 202° |
| 2026-04-27 02:07 | -27.42182 | 153.08462 | 1411 ft | 205 kts | 203° |
| 2026-04-27 02:07 | -27.43527 | 153.07697 | 1652 ft | 222 kts | 204° |
| 2026-04-27 02:08 | -27.44957 | 153.06877 | 1906 ft | 238 kts | 204° |
| 2026-04-27 02:08 | -27.46479 | 153.06006 | 2216 ft | 251 kts | 203° |
| 2026-04-27 02:08 | -27.48003 | 153.05075 | 2785 ft | 254 kts | 213° |
| 2026-04-27 02:08 | -27.49195 | 153.03583 | 3315 ft | 263 kts | 240° |
| 2026-04-27 02:09 | -27.49659 | 153.01573 | 3785 ft | 271 kts | 270° |
| 2026-04-27 02:09 | -27.49339 | 152.99486 | 4303 ft | 275 kts | 284° |
| 2026-04-27 02:09 | -27.48822 | 152.97415 | 4864 ft | 276 kts | 285° |
| 2026-04-27 02:09 | -27.48281 | 152.95329 | 5403 ft | 278 kts | 285° |
| 2026-04-27 02:10 | -27.47705 | 152.93240 | 5859 ft | 282 kts | 294° |
| 2026-04-27 02:10 | -27.46567 | 152.91449 | 6299 ft | 282 kts | 323° |
| 2026-04-27 02:10 | -27.44837 | 152.90437 | 6730 ft | 278 kts | 351° |
| 2026-04-27 02:10 | -27.42929 | 152.90233 | 7229 ft | 273 kts | 12° |
| 2026-04-27 02:11 | -27.41167 | 152.90907 | 7682 ft | 267 kts | 37° |
| 2026-04-27 02:11 | -27.39834 | 152.92368 | 7981 ft | 270 kts | 59° |
| 2026-04-27 02:11 | -27.38827 | 152.94180 | 8460 ft | 272 kts | 60° |
| 2026-04-27 02:11 | -27.37792 | 152.95973 | 9010 ft | 274 kts | 58° |
| 2026-04-27 02:12 | -27.36704 | 152.97752 | 9444 ft | 278 kts | 57° |
| 2026-04-27 02:12 | -27.35600 | 152.99519 | 9949 ft | 279 kts | 57° |
| 2026-04-27 02:12 | -27.34464 | 153.01331 | 10384 ft | 284 kts | 57° |
| 2026-04-27 02:12 | -27.33300 | 153.03188 | 10499 ft | 300 kts | 57° |
| 2026-04-27 02:13 | -27.32051 | 153.05179 | 10618 ft | 317 kts | 57° |
| 2026-04-27 02:13 | -27.30759 | 153.07236 | 10760 ft | 332 kts | 57° |
| 2026-04-27 02:13 | -27.29332 | 153.09357 | 10872 ft | 349 kts | 50° |
| 2026-04-27 02:13 | -27.27513 | 153.11308 | 11022 ft | 364 kts | 43° |
| 2026-04-27 02:14 | -27.25586 | 153.13191 | 11379 ft | 372 kts | 43° |
| 2026-04-27 02:14 | -27.23587 | 153.15134 | 11897 ft | 375 kts | 42° |
| 2026-04-27 02:14 | -27.21457 | 153.16852 | 12426 ft | 379 kts | 31° |
| 2026-04-27 02:14 | -27.19031 | 153.18106 | 12930 ft | 384 kts | 21° |
| 2026-04-27 02:15 | -27.16469 | 153.19043 | 13449 ft | 386 kts | 19° |
| 2026-04-27 02:15 | -27.13887 | 153.19951 | 13952 ft | 389 kts | 19° |
| 2026-04-27 02:15 | -27.11280 | 153.20869 | 14445 ft | 392 kts | 19° |
| 2026-04-27 02:15 | -27.08652 | 153.21794 | 14935 ft | 394 kts | 19° |
| 2026-04-27 02:16 | -27.06013 | 153.22723 | 15401 ft | 398 kts | 19° |
| 2026-04-27 02:16 | -27.03366 | 153.23570 | 15867 ft | 401 kts | 12° |
| 2026-04-27 02:16 | -27.00552 | 153.23940 | 16306 ft | 404 kts | 3° |
| 2026-04-27 02:16 | -26.97764 | 153.24017 | 16755 ft | 407 kts | 2° |
| 2026-04-27 02:17 | -26.94984 | 153.24074 | 17210 ft | 409 kts | 2° |
| 2026-04-27 02:17 | -26.92123 | 153.24133 | 17685 ft | 410 kts | 2° |
| 2026-04-27 02:17 | -26.89234 | 153.24193 | 18078 ft | 414 kts | 2° |
| 2026-04-27 02:17 | -26.86332 | 153.24255 | 18454 ft | 418 kts | 1° |
| 2026-04-27 02:18 | -26.83385 | 153.24318 | 18882 ft | 420 kts | 2° |
| 2026-04-27 02:18 | -26.80447 | 153.24381 | 19316 ft | 421 kts | 1° |
| 2026-04-27 02:18 | -26.77542 | 153.24443 | 19776 ft | 422 kts | 1° |
| 2026-04-27 02:18 | -26.74592 | 153.24507 | 20222 ft | 423 kts | 1° |
| 2026-04-27 02:19 | -26.71623 | 153.24620 | 20635 ft | 425 kts | 5° |
| 2026-04-27 02:19 | -26.68710 | 153.25192 | 20987 ft | 428 kts | 15° |
| 2026-04-27 02:19 | -26.65875 | 153.26329 | 21373 ft | 430 kts | 23° |
| 2026-04-27 02:19 | -26.63164 | 153.27733 | 21731 ft | 433 kts | 24° |
| 2026-04-27 02:20 | -26.60419 | 153.29182 | 22080 ft | 435 kts | 24° |
| 2026-04-27 02:20 | -26.57670 | 153.30632 | 22462 ft | 437 kts | 24° |
| 2026-04-27 02:20 | -26.54913 | 153.32085 | 22822 ft | 438 kts | 24° |
| 2026-04-27 02:20 | -26.52129 | 153.33550 | 23135 ft | 441 kts | 24° |
| 2026-04-27 02:21 | -26.49328 | 153.35022 | 23476 ft | 443 kts | 24° |
| 2026-04-27 02:21 | -26.46492 | 153.36511 | 23841 ft | 445 kts | 24° |
| 2026-04-27 02:21 | -26.43690 | 153.37982 | 24166 ft | 447 kts | 23° |
| 2026-04-27 02:21 | -26.40858 | 153.39468 | 24471 ft | 449 kts | 23° |
| 2026-04-27 02:22 | -26.38013 | 153.40959 | 24775 ft | 451 kts | 24° |
| 2026-04-27 02:22 | -26.35171 | 153.42448 | 25091 ft | 453 kts | 24° |
| 2026-04-27 02:22 | -26.32321 | 153.43939 | 25377 ft | 455 kts | 23° |
| 2026-04-27 02:22 | -26.29458 | 153.45438 | 25655 ft | 457 kts | 23° |
| 2026-04-27 02:23 | -26.26577 | 153.46945 | 25977 ft | 458 kts | 23° |
| 2026-04-27 02:23 | -26.23694 | 153.48451 | 26265 ft | 460 kts | 23° |
| 2026-04-27 02:23 | -26.20765 | 153.49982 | 26516 ft | 462 kts | 23° |
| 2026-04-27 02:23 | -26.17854 | 153.51500 | 26750 ft | 465 kts | 23° |
| 2026-04-27 02:24 | -26.14914 | 153.53035 | 27015 ft | 467 kts | 23° |
| 2026-04-27 02:24 | -26.11965 | 153.54573 | 27315 ft | 468 kts | 23° |
| 2026-04-27 02:24 | -26.08985 | 153.56125 | 27588 ft | 469 kts | 23° |
| 2026-04-27 02:24 | -26.06022 | 153.57669 | 27835 ft | 471 kts | 23° |
| 2026-04-27 02:25 | -26.03051 | 153.59215 | 28094 ft | 473 kts | 23° |
| 2026-04-27 02:25 | -26.00037 | 153.60783 | 28308 ft | 475 kts | 23° |
| 2026-04-27 02:25 | -25.97044 | 153.62340 | 28543 ft | 477 kts | 23° |
| 2026-04-27 02:25 | -25.94031 | 153.63905 | 28792 ft | 478 kts | 22° |
| 2026-04-27 02:26 | -25.91006 | 153.65477 | 29047 ft | 480 kts | 22° |
| 2026-04-27 02:26 | -25.87971 | 153.67052 | 29250 ft | 482 kts | 22° |
| 2026-04-27 02:26 | -25.84932 | 153.68630 | 29452 ft | 484 kts | 22° |
| 2026-04-27 02:26 | -25.81862 | 153.70221 | 29710 ft | 484 kts | 22° |
| 2026-04-27 02:27 | -25.78815 | 153.71800 | 29996 ft | 484 kts | 21° |
| 2026-04-27 02:27 | -25.75796 | 153.73364 | 30332 ft | 482 kts | 21° |
| 2026-04-27 02:27 | -25.72750 | 153.74942 | 30636 ft | 481 kts | 21° |
| 2026-04-27 02:27 | -25.69688 | 153.76526 | 30922 ft | 480 kts | 21° |
| 2026-04-27 02:28 | -25.66678 | 153.78082 | 31174 ft | 480 kts | 20° |
| 2026-04-27 02:28 | -25.63614 | 153.79665 | 31386 ft | 481 kts | 20° |
| 2026-04-27 02:28 | -25.60593 | 153.81226 | 31604 ft | 481 kts | 20° |
| 2026-04-27 02:28 | -25.57573 | 153.82785 | 31872 ft | 480 kts | 19° |
| 2026-04-27 02:29 | -25.54545 | 153.84348 | 32189 ft | 478 kts | 19° |
| 2026-04-27 02:29 | -25.51522 | 153.85907 | 32467 ft | 476 kts | 19° |
| 2026-04-27 02:29 | -25.48500 | 153.87463 | 32667 ft | 477 kts | 18° |
| 2026-04-27 02:29 | -25.45480 | 153.89018 | 32827 ft | 478 kts | 18° |
| 2026-04-27 02:30 | -25.42475 | 153.90564 | 32952 ft | 480 kts | 18° |
| 2026-04-27 02:30 | -25.39399 | 153.92146 | 33080 ft | 480 kts | 18° |
| 2026-04-27 02:30 | -25.33284 | 153.95290 | 33080 ft | 478 kts | 17° |
| 2026-04-27 02:31 | -25.27207 | 153.98408 | 33095 ft | 481 kts | 17° |
| 2026-04-27 02:31 | -25.21120 | 154.01532 | 33091 ft | 478 kts | 17° |
| 2026-04-27 02:32 | -25.15042 | 154.04645 | 33076 ft | 481 kts | 16° |
| 2026-04-27 02:32 | -25.08982 | 154.07747 | 33091 ft | 477 kts | 16° |
| 2026-04-27 02:33 | -25.02941 | 154.10834 | 33083 ft | 478 kts | 16° |
| 2026-04-27 02:33 | -24.96860 | 154.13939 | 33081 ft | 478 kts | 15° |
| 2026-04-27 02:34 | -24.90803 | 154.17027 | 33083 ft | 480 kts | 16° |
| 2026-04-27 02:34 | -24.84722 | 154.20126 | 33092 ft | 479 kts | 15° |
| 2026-04-27 02:35 | -24.78657 | 154.23213 | 33079 ft | 480 kts | 16° |
| 2026-04-27 02:35 | -24.72601 | 154.26292 | 33079 ft | 477 kts | 15° |
| 2026-04-27 02:36 | -24.66492 | 154.29059 | 33074 ft | 474 kts | 11° |
| 2026-04-27 02:36 | -24.60273 | 154.31587 | 33070 ft | 471 kts | 11° |
| 2026-04-27 02:37 | -24.54152 | 154.34094 | 33076 ft | 471 kts | 11° |
| 2026-04-27 02:37 | -24.47943 | 154.36650 | 33068 ft | 473 kts | 11° |
| 2026-04-27 02:38 | -24.41775 | 154.39197 | 33063 ft | 470 kts | 11° |
| 2026-04-27 02:38 | -24.35627 | 154.41734 | 33053 ft | 472 kts | 11° |
| 2026-04-27 02:39 | -24.29469 | 154.44278 | 33048 ft | 471 kts | 11° |
| 2026-04-27 02:39 | -24.23265 | 154.46835 | 33053 ft | 472 kts | 11° |
| 2026-04-27 02:40 | -24.17156 | 154.49356 | 33047 ft | 469 kts | 11° |
| 2026-04-27 02:40 | -24.11030 | 154.51877 | 33037 ft | 472 kts | 11° |
| 2026-04-27 02:41 | -24.04858 | 154.54417 | 33038 ft | 472 kts | 11° |
| 2026-04-27 02:41 | -23.98702 | 154.56947 | 33036 ft | 471 kts | 11° |
| 2026-04-27 02:42 | -23.92528 | 154.59483 | 33034 ft | 471 kts | 11° |
| 2026-04-27 02:42 | -23.86408 | 154.61995 | 33042 ft | 471 kts | 11° |
| 2026-04-27 02:43 | -23.80267 | 154.64510 | 33042 ft | 473 kts | 11° |
| 2026-04-27 02:43 | -23.74086 | 154.67042 | 33023 ft | 469 kts | 11° |
| 2026-04-27 02:44 | -23.67966 | 154.69544 | 33016 ft | 475 kts | 11° |
| 2026-04-27 02:44 | -23.61777 | 154.72073 | 33015 ft | 472 kts | 11° |
| 2026-04-27 02:45 | -23.55630 | 154.74583 | 33010 ft | 471 kts | 11° |
| 2026-04-27 02:45 | -23.49449 | 154.77103 | 33012 ft | 475 kts | 11° |
| 2026-04-27 02:46 | -23.43257 | 154.79625 | 33004 ft | 472 kts | 11° |
| 2026-04-27 02:46 | -23.37066 | 154.82144 | 33004 ft | 475 kts | 11° |
| 2026-04-27 02:47 | -23.30875 | 154.84662 | 33007 ft | 475 kts | 11° |
| 2026-04-27 02:47 | -23.24661 | 154.87186 | 32997 ft | 475 kts | 11° |
| 2026-04-27 02:48 | -23.18443 | 154.89708 | 32996 ft | 478 kts | 11° |
| 2026-04-27 02:48 | -23.12232 | 154.92224 | 32990 ft | 478 kts | 11° |
| 2026-04-27 02:49 | -23.05966 | 154.94762 | 32987 ft | 479 kts | 11° |
| 2026-04-27 02:49 | -22.99696 | 154.97299 | 32982 ft | 480 kts | 11° |
| 2026-04-27 02:50 | -22.93425 | 154.99834 | 32986 ft | 479 kts | 11° |
| 2026-04-27 02:50 | -22.87160 | 155.02364 | 32990 ft | 478 kts | 11° |
| 2026-04-27 02:51 | -22.80926 | 155.04877 | 32997 ft | 481 kts | 11° |
| 2026-04-27 02:51 | -22.74668 | 155.07400 | 32994 ft | 477 kts | 11° |
| 2026-04-27 02:52 | -22.68377 | 155.09930 | 32991 ft | 480 kts | 11° |
| 2026-04-27 02:52 | -22.62128 | 155.12447 | 32983 ft | 477 kts | 11° |
| 2026-04-27 02:53 | -22.55876 | 155.14957 | 32979 ft | 477 kts | 11° |
| 2026-04-27 02:53 | -22.49608 | 155.17471 | 32975 ft | 478 kts | 11° |
| 2026-04-27 02:54 | -22.43373 | 155.19972 | 32978 ft | 478 kts | 11° |
| 2026-04-27 02:54 | -22.37152 | 155.22466 | 32982 ft | 474 kts | 11° |
| 2026-04-27 02:55 | -22.30943 | 155.24950 | 32966 ft | 476 kts | 11° |
| 2026-04-27 02:55 | -22.24750 | 155.27426 | 32982 ft | 474 kts | 11° |
| 2026-04-27 02:56 | -22.18520 | 155.29913 | 32974 ft | 476 kts | 11° |
| 2026-04-27 02:56 | -22.12311 | 155.32391 | 32973 ft | 476 kts | 10° |
| 2026-04-27 02:57 | -22.06094 | 155.34871 | 32959 ft | 474 kts | 10° |
| 2026-04-27 02:57 | -21.99938 | 155.37324 | 32968 ft | 472 kts | 10° |
| 2026-04-27 02:58 | -21.93745 | 155.39789 | 32972 ft | 471 kts | 10° |
| 2026-04-27 02:58 | -21.87555 | 155.42248 | 32971 ft | 471 kts | 9° |
| 2026-04-27 02:59 | -21.81433 | 155.44681 | 32983 ft | 470 kts | 9° |
| 2026-04-27 02:59 | -21.75254 | 155.47131 | 32974 ft | 473 kts | 9° |
| 2026-04-27 03:00 | -21.69128 | 155.49564 | 32967 ft | 468 kts | 9° |
| 2026-04-27 03:00 | -21.63015 | 155.51984 | 32955 ft | 468 kts | 9° |
| 2026-04-27 03:01 | -21.56880 | 155.54411 | 32951 ft | 468 kts | 9° |
| 2026-04-27 03:01 | -21.50759 | 155.56831 | 32950 ft | 469 kts | 8° |
| 2026-04-27 03:02 | -21.44630 | 155.59253 | 32961 ft | 467 kts | 8° |
| 2026-04-27 03:02 | -21.38516 | 155.61667 | 32969 ft | 467 kts | 8° |
| 2026-04-27 03:03 | -21.29395 | 155.65262 | 32975 ft | 468 kts | 8° |
| 2026-04-27 03:04 | -21.23320 | 155.67656 | 32941 ft | 463 kts | 7° |
| 2026-04-27 03:04 | -21.17247 | 155.70046 | 32929 ft | 464 kts | 7° |
| 2026-04-27 03:05 | -21.11182 | 155.72427 | 32927 ft | 465 kts | 7° |
| 2026-04-27 03:05 | -21.05162 | 155.74795 | 32931 ft | 460 kts | 7° |
| 2026-04-27 03:06 | -20.99089 | 155.77176 | 32933 ft | 464 kts | 7° |
| 2026-04-27 03:06 | -20.93066 | 155.79540 | 32931 ft | 460 kts | 7° |
| 2026-04-27 03:07 | -20.87057 | 155.81894 | 32947 ft | 461 kts | 6° |
| 2026-04-27 03:07 | -20.81020 | 155.84258 | 32938 ft | 458 kts | 6° |
| 2026-04-27 03:08 | -20.75002 | 155.86610 | 32931 ft | 459 kts | 7° |
| 2026-04-27 03:08 | -20.69025 | 155.88947 | 32924 ft | 459 kts | 7° |
| 2026-04-27 03:09 | -20.62981 | 155.91304 | 32927 ft | 462 kts | 7° |
| 2026-04-27 03:09 | -20.56967 | 155.93651 | 32922 ft | 461 kts | 7° |
| 2026-04-27 03:10 | -20.50884 | 155.96022 | 32928 ft | 462 kts | 7° |
| 2026-04-27 03:10 | -20.44877 | 155.98361 | 32926 ft | 462 kts | 8° |
| 2026-04-27 03:11 | -20.38807 | 156.00725 | 32926 ft | 461 kts | 8° |
| 2026-04-27 03:11 | -20.32764 | 156.03072 | 32927 ft | 465 kts | 7° |
| 2026-04-27 03:12 | -20.26725 | 156.05421 | 32924 ft | 461 kts | 8° |
| 2026-04-27 03:12 | -20.20664 | 156.07773 | 32923 ft | 463 kts | 7° |
| 2026-04-27 03:13 | -20.14588 | 156.10129 | 32927 ft | 464 kts | 8° |
| 2026-04-27 03:13 | -20.08522 | 156.12480 | 32928 ft | 462 kts | 8° |
| 2026-04-27 03:14 | -20.02532 | 156.14801 | 32919 ft | 459 kts | 8° |
| 2026-04-27 03:14 | -19.96482 | 156.17140 | 32921 ft | 461 kts | 8° |
| 2026-04-27 03:15 | -19.90444 | 156.19473 | 32924 ft | 462 kts | 8° |
| 2026-04-27 03:15 | -19.84334 | 156.21832 | 32934 ft | 465 kts | 8° |
| 2026-04-27 03:16 | -19.78304 | 156.24176 | 32932 ft | 462 kts | 8° |
| 2026-04-27 03:16 | -19.72237 | 156.26537 | 32932 ft | 465 kts | 8° |
| 2026-04-27 03:17 | -19.66166 | 156.28903 | 32930 ft | 458 kts | 8° |
| 2026-04-27 03:17 | -19.60190 | 156.31224 | 32925 ft | 462 kts | 8° |
| 2026-04-27 03:18 | -19.54129 | 156.33577 | 32929 ft | 466 kts | 8° |
| 2026-04-27 03:18 | -19.48056 | 156.35938 | 32922 ft | 461 kts | 8° |
| 2026-04-27 03:19 | -19.42014 | 156.38280 | 32922 ft | 460 kts | 8° |
| 2026-04-27 03:19 | -19.36000 | 156.40610 | 32923 ft | 463 kts | 8° |
| 2026-04-27 03:20 | -19.29912 | 156.42967 | 32924 ft | 460 kts | 8° |
| 2026-04-27 03:20 | -19.23898 | 156.45294 | 32918 ft | 463 kts | 8° |
| 2026-04-27 03:21 | -19.17832 | 156.47638 | 32919 ft | 465 kts | 9° |
| 2026-04-27 03:21 | -19.11785 | 156.49977 | 32911 ft | 460 kts | 9° |
| 2026-04-27 03:22 | -19.05716 | 156.52318 | 32894 ft | 462 kts | 9° |
| 2026-04-27 03:22 | -18.99654 | 156.54656 | 32896 ft | 464 kts | 9° |
| 2026-04-27 03:23 | -18.93583 | 156.56993 | 32892 ft | 466 kts | 9° |
| 2026-04-27 03:23 | -18.87498 | 156.59338 | 32909 ft | 464 kts | 9° |
| 2026-04-27 03:24 | -18.81420 | 156.61676 | 32907 ft | 464 kts | 9° |
| 2026-04-27 03:24 | -18.75403 | 156.63992 | 32909 ft | 462 kts | 9° |
| 2026-04-27 03:25 | -18.69342 | 156.66321 | 32883 ft | 460 kts | 9° |
| 2026-04-27 03:25 | -18.63274 | 156.68648 | 32884 ft | 463 kts | 9° |
| 2026-04-27 03:26 | -18.57233 | 156.70967 | 32883 ft | 461 kts | 9° |
| 2026-04-27 03:26 | -18.51189 | 156.73283 | 32883 ft | 463 kts | 9° |
| 2026-04-27 03:27 | -18.45123 | 156.75606 | 32884 ft | 464 kts | 9° |
| 2026-04-27 03:27 | -18.39068 | 156.77925 | 32882 ft | 461 kts | 9° |
| 2026-04-27 03:28 | -18.33026 | 156.80234 | 32886 ft | 463 kts | 9° |
| 2026-04-27 03:28 | -18.26916 | 156.82568 | 32884 ft | 465 kts | 9° |
| 2026-04-27 03:29 | -18.20858 | 156.84883 | 32882 ft | 463 kts | 9° |
| 2026-04-27 03:29 | -18.14770 | 156.87205 | 32881 ft | 465 kts | 10° |
| 2026-04-27 03:30 | -18.08673 | 156.89531 | 32880 ft | 464 kts | 10° |
| 2026-04-27 03:30 | -18.02608 | 156.91843 | 32878 ft | 462 kts | 10° |
| 2026-04-27 03:31 | -17.96527 | 156.94157 | 32881 ft | 463 kts | 10° |
| 2026-04-27 03:31 | -17.90481 | 156.96457 | 32877 ft | 464 kts | 10° |
| 2026-04-27 03:32 | -17.84415 | 156.98764 | 32894 ft | 465 kts | 10° |
| 2026-04-27 03:32 | -17.78289 | 157.01091 | 32892 ft | 466 kts | 10° |
| 2026-04-27 03:33 | -17.72189 | 157.03407 | 32889 ft | 463 kts | 10° |
| 2026-04-27 03:33 | -17.66126 | 157.05707 | 32893 ft | 467 kts | 10° |
| 2026-04-27 03:34 | -17.59967 | 157.08041 | 32894 ft | 467 kts | 11° |
| 2026-04-27 03:34 | -17.53887 | 157.10345 | 32892 ft | 466 kts | 10° |
| 2026-04-27 03:35 | -17.47793 | 157.12651 | 32894 ft | 468 kts | 11° |
| 2026-04-27 03:35 | -17.41654 | 157.14975 | 32893 ft | 466 kts | 11° |
| 2026-04-27 03:36 | -17.35552 | 157.17281 | 32890 ft | 467 kts | 11° |
| 2026-04-27 03:36 | -17.29426 | 157.19594 | 32890 ft | 470 kts | 11° |
| 2026-04-27 03:37 | -17.23229 | 157.21935 | 32889 ft | 468 kts | 11° |
| 2026-04-27 03:37 | -17.17130 | 157.24236 | 32887 ft | 467 kts | 11° |
| 2026-04-27 03:38 | -17.11009 | 157.26541 | 32878 ft | 469 kts | 11° |
| 2026-04-27 03:38 | -17.04819 | 157.28873 | 32869 ft | 470 kts | 11° |
| 2026-04-27 03:39 | -16.98708 | 157.31175 | 32868 ft | 467 kts | 11° |
| 2026-04-27 03:39 | -16.92530 | 157.33498 | 32869 ft | 470 kts | 12° |
| 2026-04-27 03:40 | -16.86376 | 157.35811 | 32880 ft | 469 kts | 11° |
| 2026-04-27 03:40 | -16.80218 | 157.38124 | 32879 ft | 470 kts | 12° |
| 2026-04-27 03:41 | -16.74019 | 157.40449 | 32882 ft | 472 kts | 12° |
| 2026-04-27 03:41 | -16.67849 | 157.42766 | 32880 ft | 472 kts | 12° |
| 2026-04-27 03:42 | -16.61670 | 157.45081 | 32879 ft | 472 kts | 12° |
| 2026-04-27 03:42 | -16.55467 | 157.47401 | 32882 ft | 472 kts | 12° |
| 2026-04-27 03:43 | -16.49285 | 157.49712 | 32882 ft | 473 kts | 12° |
| 2026-04-27 03:43 | -16.43059 | 157.52039 | 32880 ft | 472 kts | 12° |
| 2026-04-27 03:44 | -16.36906 | 157.54335 | 32881 ft | 473 kts | 12° |
| 2026-04-27 03:44 | -16.30701 | 157.56650 | 32876 ft | 471 kts | 12° |
| 2026-04-27 03:45 | -16.24530 | 157.58951 | 32878 ft | 473 kts | 12° |
| 2026-04-27 03:45 | -16.18265 | 157.61284 | 32876 ft | 473 kts | 12° |
| 2026-04-27 03:46 | -16.12096 | 157.63580 | 32875 ft | 475 kts | 12° |
| 2026-04-27 03:46 | -16.05858 | 157.65903 | 32857 ft | 473 kts | 12° |
| 2026-04-27 03:47 | -15.99630 | 157.68218 | 32858 ft | 475 kts | 12° |
| 2026-04-27 03:47 | -15.93421 | 157.70525 | 32857 ft | 475 kts | 12° |
| 2026-04-27 03:48 | -15.87184 | 157.72839 | 32868 ft | 476 kts | 12° |
| 2026-04-27 03:48 | -15.80939 | 157.75157 | 32867 ft | 475 kts | 12° |
| 2026-04-27 03:49 | -15.74725 | 157.77463 | 32862 ft | 472 kts | 12° |
| 2026-04-27 03:49 | -15.68514 | 157.79764 | 32858 ft | 475 kts | 12° |
| 2026-04-27 03:50 | -15.62280 | 157.82071 | 32861 ft | 478 kts | 12° |
| 2026-04-27 03:50 | -15.56016 | 157.84390 | 32858 ft | 475 kts | 13° |
| 2026-04-27 03:51 | -15.49768 | 157.86702 | 32857 ft | 476 kts | 13° |
| 2026-04-27 03:51 | -15.43498 | 157.89018 | 32851 ft | 477 kts | 13° |
| 2026-04-27 03:52 | -15.37259 | 157.91324 | 32847 ft | 478 kts | 13° |
| 2026-04-27 03:52 | -15.31000 | 157.93634 | 32845 ft | 476 kts | 13° |
| 2026-04-27 03:53 | -15.24716 | 157.95952 | 32845 ft | 480 kts | 13° |
| 2026-04-27 03:53 | -15.18454 | 157.98261 | 32844 ft | 478 kts | 13° |
| 2026-04-27 03:54 | -15.12166 | 158.00578 | 32843 ft | 476 kts | 13° |
| 2026-04-27 03:54 | -15.05907 | 158.02882 | 32844 ft | 479 kts | 13° |
| 2026-04-27 03:55 | -14.99666 | 158.05179 | 32848 ft | 477 kts | 13° |
| 2026-04-27 03:55 | -14.93380 | 158.07491 | 32842 ft | 480 kts | 13° |
| 2026-04-27 03:56 | -14.87063 | 158.09813 | 32853 ft | 480 kts | 13° |
| 2026-04-27 03:56 | -14.80768 | 158.12125 | 32850 ft | 479 kts | 14° |
| 2026-04-27 03:57 | -14.74459 | 158.14439 | 32850 ft | 482 kts | 13° |
| 2026-04-27 03:57 | -14.68182 | 158.16744 | 32850 ft | 479 kts | 14° |
| 2026-04-27 03:58 | -14.61848 | 158.19064 | 32851 ft | 484 kts | 14° |
| 2026-04-27 03:58 | -14.55510 | 158.21387 | 32849 ft | 482 kts | 14° |
| 2026-04-27 03:59 | -14.49137 | 158.23721 | 32848 ft | 483 kts | 14° |
| 2026-04-27 03:59 | -14.42804 | 158.26039 | 32846 ft | 484 kts | 14° |
| 2026-04-27 04:00 | -14.36476 | 158.28354 | 32839 ft | 483 kts | 14° |
| 2026-04-27 04:00 | -14.30097 | 158.30685 | 32836 ft | 483 kts | 14° |
| 2026-04-27 04:01 | -14.23732 | 158.33009 | 32836 ft | 486 kts | 14° |
| 2026-04-27 04:01 | -14.17366 | 158.35333 | 32832 ft | 486 kts | 14° |
| 2026-04-27 04:02 | -14.10991 | 158.37660 | 32832 ft | 484 kts | 14° |
| 2026-04-27 04:02 | -14.04639 | 158.39993 | 32822 ft | 486 kts | 17° |
| 2026-04-27 04:03 | -13.98715 | 158.43539 | 32826 ft | 500 kts | 34° |
| 2026-04-27 04:03 | -13.93761 | 158.48686 | 32830 ft | 507 kts | 44° |
| 2026-04-27 04:04 | -13.89037 | 158.54076 | 32833 ft | 510 kts | 44° |
| 2026-04-27 04:04 | -13.84296 | 158.59474 | 32835 ft | 506 kts | 43° |
| 2026-04-27 04:05 | -13.79575 | 158.64836 | 32835 ft | 505 kts | 44° |
| 2026-04-27 04:05 | -13.74846 | 158.70200 | 32825 ft | 506 kts | 44° |
| 2026-04-27 04:06 | -13.70128 | 158.75545 | 32827 ft | 505 kts | 43° |
| 2026-04-27 04:06 | -13.65403 | 158.80893 | 32826 ft | 507 kts | 44° |
| 2026-04-27 04:07 | -13.58284 | 158.88942 | 32826 ft | 505 kts | 44° |
| 2026-04-27 04:07 | -13.53575 | 158.94264 | 32826 ft | 503 kts | 44° |
| 2026-04-27 04:08 | -13.48855 | 158.99591 | 32822 ft | 504 kts | 44° |
| 2026-04-27 04:08 | -13.44137 | 159.04915 | 32817 ft | 504 kts | 44° |
| 2026-04-27 04:09 | -13.39430 | 159.10222 | 32816 ft | 503 kts | 44° |
| 2026-04-27 04:09 | -13.34707 | 159.15544 | 32813 ft | 504 kts | 44° |
| 2026-04-27 04:10 | -13.29977 | 159.20871 | 32815 ft | 504 kts | 44° |
| 2026-04-27 04:10 | -13.25280 | 159.26158 | 32817 ft | 502 kts | 44° |
| 2026-04-27 04:11 | -13.20563 | 159.31462 | 32811 ft | 503 kts | 44° |
| 2026-04-27 04:11 | -13.15855 | 159.36755 | 32809 ft | 501 kts | 44° |
| 2026-04-27 04:12 | -13.11158 | 159.42032 | 32813 ft | 502 kts | 44° |
| 2026-04-27 04:12 | -13.06444 | 159.47324 | 32810 ft | 501 kts | 44° |
| 2026-04-27 04:13 | -13.01777 | 159.52560 | 32808 ft | 498 kts | 44° |
| 2026-04-27 04:13 | -12.97101 | 159.57803 | 32802 ft | 499 kts | 44° |
| 2026-04-27 04:14 | -12.92410 | 159.63060 | 32810 ft | 498 kts | 44° |
| 2026-04-27 04:14 | -12.87756 | 159.68272 | 32820 ft | 497 kts | 44° |
| 2026-04-27 04:15 | -12.83088 | 159.73497 | 32821 ft | 498 kts | 44° |
| 2026-04-27 04:15 | -12.78427 | 159.78713 | 32819 ft | 496 kts | 44° |
| 2026-04-27 04:16 | -12.73732 | 159.83960 | 32816 ft | 496 kts | 44° |
| 2026-04-27 04:16 | -12.69080 | 159.89159 | 32819 ft | 496 kts | 44° |
| 2026-04-27 04:17 | -12.64414 | 159.94369 | 32820 ft | 498 kts | 44° |
| 2026-04-27 04:17 | -12.59739 | 159.99587 | 32827 ft | 497 kts | 43° |
| 2026-04-27 04:18 | -12.55063 | 160.04802 | 32827 ft | 496 kts | 44° |
| 2026-04-27 04:18 | -12.50415 | 160.09984 | 32825 ft | 495 kts | 43° |
| 2026-04-27 04:19 | -12.45748 | 160.15183 | 32825 ft | 497 kts | 44° |
| 2026-04-27 04:19 | -12.41090 | 160.20369 | 32818 ft | 495 kts | 44° |
| 2026-04-27 04:20 | -12.36412 | 160.25575 | 32814 ft | 495 kts | 43° |
| 2026-04-27 04:20 | -12.31738 | 160.30774 | 32809 ft | 496 kts | 43° |
| 2026-04-27 04:21 | -12.27087 | 160.35944 | 32810 ft | 497 kts | 44° |
| 2026-04-27 04:21 | -12.22404 | 160.41145 | 32805 ft | 496 kts | 44° |
| 2026-04-27 04:22 | -12.17728 | 160.46336 | 32805 ft | 496 kts | 44° |
| 2026-04-27 04:22 | -12.13052 | 160.51526 | 32807 ft | 497 kts | 44° |
| 2026-04-27 04:23 | -12.08379 | 160.56709 | 32808 ft | 497 kts | 43° |
| 2026-04-27 04:23 | -12.03683 | 160.61914 | 32808 ft | 497 kts | 44° |
| 2026-04-27 04:24 | -11.99006 | 160.67096 | 32797 ft | 496 kts | 43° |
| 2026-04-27 04:24 | -11.94319 | 160.72286 | 32802 ft | 496 kts | 43° |
| 2026-04-27 04:25 | -11.89647 | 160.77455 | 32802 ft | 498 kts | 43° |
| 2026-04-27 04:25 | -11.84955 | 160.82645 | 32807 ft | 497 kts | 43° |
| 2026-04-27 04:26 | -11.80279 | 160.87814 | 32808 ft | 497 kts | 44° |
| 2026-04-27 04:26 | -11.75582 | 160.93004 | 32810 ft | 496 kts | 43° |
| 2026-04-27 04:27 | -11.70914 | 160.98158 | 32809 ft | 496 kts | 43° |
| 2026-04-27 04:27 | -11.66222 | 161.03337 | 32809 ft | 496 kts | 43° |
| 2026-04-27 04:28 | -11.61540 | 161.08501 | 32812 ft | 498 kts | 44° |
| 2026-04-27 04:28 | -11.56853 | 161.13669 | 32816 ft | 496 kts | 43° |
| 2026-04-27 04:29 | -11.52167 | 161.18831 | 32817 ft | 497 kts | 44° |
| 2026-04-27 04:29 | -11.47473 | 161.24000 | 32819 ft | 497 kts | 44° |
| 2026-04-27 04:30 | -11.42765 | 161.29184 | 32826 ft | 497 kts | 44° |
| 2026-04-27 04:30 | -11.38056 | 161.34363 | 32824 ft | 496 kts | 44° |
| 2026-04-27 04:31 | -11.33390 | 161.39494 | 32829 ft | 496 kts | 44° |
| 2026-04-27 04:31 | -11.28677 | 161.44673 | 32826 ft | 497 kts | 44° |
| 2026-04-27 04:32 | -11.23999 | 161.49812 | 32828 ft | 495 kts | 44° |
| 2026-04-27 04:32 | -11.19302 | 161.54970 | 32829 ft | 495 kts | 44° |
| 2026-04-27 04:33 | -11.14635 | 161.60091 | 32828 ft | 498 kts | 44° |
| 2026-04-27 04:33 | -11.09922 | 161.65259 | 32823 ft | 497 kts | 44° |
| 2026-04-27 04:34 | -11.05205 | 161.70430 | 32811 ft | 497 kts | 44° |
| 2026-04-27 04:34 | -11.00505 | 161.75578 | 32805 ft | 500 kts | 44° |
| 2026-04-27 04:35 | -10.95772 | 161.80762 | 32802 ft | 497 kts | 44° |
| 2026-04-27 04:35 | -10.91058 | 161.85922 | 32809 ft | 496 kts | 44° |
| 2026-04-27 04:36 | -10.86371 | 161.91049 | 32821 ft | 494 kts | 44° |
| 2026-04-27 04:36 | -10.81691 | 161.96167 | 32835 ft | 495 kts | 44° |
| 2026-04-27 04:37 | -10.76971 | 162.01326 | 32849 ft | 494 kts | 44° |
| 2026-04-27 04:37 | -10.72265 | 162.06465 | 32852 ft | 496 kts | 44° |
| 2026-04-27 04:38 | -10.67565 | 162.11598 | 32839 ft | 495 kts | 44° |
| 2026-04-27 04:38 | -10.62883 | 162.16707 | 32830 ft | 494 kts | 44° |
| 2026-04-27 04:39 | -10.58199 | 162.21815 | 32821 ft | 494 kts | 44° |
| 2026-04-27 04:39 | -10.53511 | 162.26927 | 32814 ft | 493 kts | 45° |
| 2026-04-27 04:40 | -10.48859 | 162.31996 | 32809 ft | 493 kts | 45° |
| 2026-04-27 04:40 | -10.44155 | 162.37120 | 32809 ft | 492 kts | 44° |
| 2026-04-27 04:41 | -10.39491 | 162.42197 | 32808 ft | 494 kts | 44° |
| 2026-04-27 04:41 | -10.34821 | 162.47279 | 32810 ft | 493 kts | 44° |
| 2026-04-27 04:42 | -10.30131 | 162.52380 | 32808 ft | 491 kts | 45° |
| 2026-04-27 04:42 | -10.25472 | 162.57446 | 32808 ft | 492 kts | 45° |
| 2026-04-27 04:43 | -10.20793 | 162.62530 | 32808 ft | 491 kts | 45° |
| 2026-04-27 04:43 | -10.16134 | 162.67590 | 32803 ft | 490 kts | 45° |
| 2026-04-27 04:44 | -10.11474 | 162.72650 | 32809 ft | 490 kts | 44° |
| 2026-04-27 04:44 | -10.06822 | 162.77698 | 32819 ft | 489 kts | 44° |
| 2026-04-27 04:45 | -10.02190 | 162.82722 | 32824 ft | 489 kts | 44° |
| 2026-04-27 04:45 | -9.97553 | 162.87749 | 32824 ft | 489 kts | 44° |
| 2026-04-27 04:46 | -9.92889 | 162.92804 | 32823 ft | 489 kts | 44° |
| 2026-04-27 04:46 | -9.88252 | 162.97827 | 32829 ft | 489 kts | 44° |
| 2026-04-27 04:47 | -9.83606 | 163.02858 | 32824 ft | 487 kts | 44° |
| 2026-04-27 04:47 | -9.78977 | 163.07867 | 32816 ft | 486 kts | 44° |
| 2026-04-27 04:48 | -9.74359 | 163.12863 | 32814 ft | 486 kts | 44° |
| 2026-04-27 04:48 | -9.69721 | 163.17877 | 32813 ft | 488 kts | 44° |
| 2026-04-27 04:49 | -9.65083 | 163.22891 | 32810 ft | 487 kts | 44° |
| 2026-04-27 04:49 | -9.60454 | 163.27892 | 32809 ft | 485 kts | 44° |
| 2026-04-27 04:50 | -9.55835 | 163.32880 | 32807 ft | 486 kts | 44° |
| 2026-04-27 04:50 | -9.51231 | 163.37849 | 32806 ft | 485 kts | 44° |
| 2026-04-27 04:51 | -9.46626 | 163.42819 | 32806 ft | 485 kts | 44° |
| 2026-04-27 04:51 | -9.41987 | 163.47821 | 32805 ft | 485 kts | 44° |
| 2026-04-27 04:52 | -9.37392 | 163.52776 | 32806 ft | 484 kts | 44° |
| 2026-04-27 04:52 | -9.32789 | 163.57736 | 32805 ft | 484 kts | 44° |
| 2026-04-27 04:53 | -9.28167 | 163.62715 | 32807 ft | 482 kts | 44° |
| 2026-04-27 04:53 | -9.23575 | 163.67659 | 32801 ft | 482 kts | 44° |
| 2026-04-27 04:54 | -9.18961 | 163.72626 | 32801 ft | 483 kts | 44° |
| 2026-04-27 04:54 | -9.14377 | 163.77557 | 32801 ft | 483 kts | 44° |
| 2026-04-27 04:55 | -9.09784 | 163.82497 | 32802 ft | 482 kts | 44° |
| 2026-04-27 04:55 | -9.05160 | 163.87468 | 32802 ft | 483 kts | 44° |
| 2026-04-27 04:56 | -9.00566 | 163.92404 | 32803 ft | 482 kts | 44° |
| 2026-04-27 04:56 | -8.95990 | 163.97321 | 32803 ft | 482 kts | 44° |
| 2026-04-27 04:57 | -8.91384 | 164.02264 | 32803 ft | 481 kts | 44° |
| 2026-04-27 04:57 | -8.86802 | 164.07184 | 32809 ft | 480 kts | 44° |
| 2026-04-27 04:58 | -8.82213 | 164.12108 | 32813 ft | 481 kts | 45° |
| 2026-04-27 04:58 | -8.77613 | 164.17040 | 32819 ft | 483 kts | 44° |
| 2026-04-27 04:59 | -8.73001 | 164.21985 | 32823 ft | 483 kts | 45° |
| 2026-04-27 04:59 | -8.68398 | 164.26918 | 32827 ft | 482 kts | 44° |
| 2026-04-27 05:00 | -8.63800 | 164.31844 | 32829 ft | 482 kts | 44° |
| 2026-04-27 05:00 | -8.59222 | 164.36746 | 32829 ft | 483 kts | 45° |
| 2026-04-27 05:01 | -8.54613 | 164.41679 | 32826 ft | 482 kts | 45° |
| 2026-04-27 05:01 | -8.50011 | 164.46603 | 32821 ft | 482 kts | 45° |
| 2026-04-27 05:02 | -8.45406 | 164.51529 | 32816 ft | 481 kts | 44° |
| 2026-04-27 05:03 | -8.38488 | 164.58925 | 32817 ft | 483 kts | 45° |
| 2026-04-27 05:03 | -8.33884 | 164.63844 | 32813 ft | 482 kts | 45° |
| 2026-04-27 05:04 | -8.29275 | 164.68768 | 32809 ft | 483 kts | 44° |
| 2026-04-27 05:04 | -8.24689 | 164.73666 | 32810 ft | 482 kts | 44° |
| 2026-04-27 05:05 | -8.20085 | 164.78580 | 32808 ft | 481 kts | 44° |
| 2026-04-27 05:05 | -8.15480 | 164.83495 | 32805 ft | 481 kts | 44° |
| 2026-04-27 05:06 | -8.10881 | 164.88400 | 32803 ft | 481 kts | 44° |
| 2026-04-27 05:06 | -8.06286 | 164.93300 | 32804 ft | 481 kts | 44° |
| 2026-04-27 05:07 | -8.01676 | 164.98215 | 32803 ft | 481 kts | 44° |
| 2026-04-27 05:07 | -7.97246 | 165.03255 | 32810 ft | 483 kts | 50° |
| 2026-04-27 05:08 | -7.93130 | 165.08575 | 32803 ft | 483 kts | 50° |
| 2026-04-27 05:08 | -7.88960 | 165.13924 | 32807 ft | 484 kts | 50° |
| 2026-04-27 05:09 | -7.84783 | 165.19247 | 32809 ft | 483 kts | 50° |
| 2026-04-27 05:09 | -7.80608 | 165.24553 | 32809 ft | 483 kts | 50° |
| 2026-04-27 05:10 | -7.76447 | 165.29829 | 32809 ft | 483 kts | 50° |
| 2026-04-27 05:10 | -7.72243 | 165.35153 | 32808 ft | 484 kts | 49° |
| 2026-04-27 05:11 | -7.68043 | 165.40471 | 32808 ft | 485 kts | 49° |
| 2026-04-27 05:11 | -7.63865 | 165.45755 | 32811 ft | 484 kts | 50° |
| 2026-04-27 05:12 | -7.59664 | 165.51065 | 32815 ft | 485 kts | 50° |
| 2026-04-27 05:12 | -7.55468 | 165.56369 | 32823 ft | 485 kts | 49° |
| 2026-04-27 05:13 | -7.51261 | 165.61682 | 32827 ft | 484 kts | 49° |
| 2026-04-27 05:13 | -7.47067 | 165.66980 | 32822 ft | 484 kts | 49° |
| 2026-04-27 05:14 | -7.42873 | 165.72273 | 32817 ft | 484 kts | 49° |
| 2026-04-27 05:14 | -7.38649 | 165.77605 | 32814 ft | 485 kts | 49° |
| 2026-04-27 05:15 | -7.34468 | 165.82878 | 32811 ft | 485 kts | 49° |
| 2026-04-27 05:15 | -7.30241 | 165.88209 | 32810 ft | 484 kts | 49° |
| 2026-04-27 05:16 | -7.26044 | 165.93500 | 32809 ft | 483 kts | 49° |
| 2026-04-27 05:16 | -7.21873 | 165.98756 | 32808 ft | 484 kts | 49° |
| 2026-04-27 05:17 | -7.17673 | 166.04047 | 32810 ft | 484 kts | 50° |
| 2026-04-27 05:17 | -7.13463 | 166.09349 | 32806 ft | 483 kts | 49° |
| 2026-04-27 05:18 | -7.09244 | 166.14662 | 32804 ft | 485 kts | 49° |
| 2026-04-27 05:18 | -7.05049 | 166.19940 | 32805 ft | 484 kts | 50° |
| 2026-04-27 05:19 | -7.00867 | 166.25203 | 32804 ft | 483 kts | 49° |
| 2026-04-27 05:19 | -6.96645 | 166.30513 | 32804 ft | 484 kts | 50° |
| 2026-04-27 05:20 | -6.92464 | 166.35770 | 32804 ft | 483 kts | 50° |
| 2026-04-27 05:20 | -6.88260 | 166.41054 | 32809 ft | 484 kts | 50° |
| 2026-04-27 05:21 | -6.84039 | 166.46358 | 32808 ft | 484 kts | 50° |
| 2026-04-27 05:21 | -6.79835 | 166.51639 | 32809 ft | 485 kts | 50° |
| 2026-04-27 05:22 | -6.75625 | 166.56926 | 32808 ft | 486 kts | 50° |
| 2026-04-27 05:22 | -6.71394 | 166.62238 | 32808 ft | 485 kts | 50° |
| 2026-04-27 05:23 | -6.67152 | 166.67561 | 32807 ft | 486 kts | 50° |
| 2026-04-27 05:23 | -6.62946 | 166.72838 | 32806 ft | 486 kts | 50° |
| 2026-04-27 05:24 | -6.58707 | 166.78154 | 32808 ft | 486 kts | 50° |
| 2026-04-27 05:24 | -6.54486 | 166.83447 | 32818 ft | 487 kts | 50° |
| 2026-04-27 05:25 | -6.50228 | 166.88785 | 32826 ft | 488 kts | 49° |
| 2026-04-27 05:25 | -6.45991 | 166.94095 | 32827 ft | 487 kts | 50° |
| 2026-04-27 05:26 | -6.41753 | 166.99403 | 32828 ft | 487 kts | 49° |
| 2026-04-27 05:26 | -6.37522 | 167.04703 | 32827 ft | 487 kts | 50° |
| 2026-04-27 05:27 | -6.33294 | 167.09996 | 32827 ft | 487 kts | 50° |
| 2026-04-27 05:27 | -6.29042 | 167.15317 | 32826 ft | 486 kts | 50° |
| 2026-04-27 05:28 | -6.24820 | 167.20601 | 32825 ft | 487 kts | 50° |
| 2026-04-27 05:28 | -6.20578 | 167.25908 | 32817 ft | 486 kts | 49° |
| 2026-04-27 05:29 | -6.16335 | 167.31213 | 32809 ft | 487 kts | 50° |
| 2026-04-27 05:29 | -6.12086 | 167.36525 | 32804 ft | 487 kts | 50° |
| 2026-04-27 05:30 | -6.07868 | 167.41797 | 32804 ft | 486 kts | 49° |
| 2026-04-27 05:30 | -6.03625 | 167.47098 | 32801 ft | 485 kts | 50° |
| 2026-04-27 05:31 | -5.99388 | 167.52391 | 32803 ft | 485 kts | 49° |
| 2026-04-27 05:31 | -5.95159 | 167.57672 | 32803 ft | 485 kts | 50° |
| 2026-04-27 05:32 | -5.90935 | 167.62946 | 32804 ft | 485 kts | 50° |
| 2026-04-27 05:32 | -5.86741 | 167.68181 | 32806 ft | 484 kts | 50° |
| 2026-04-27 05:33 | -5.82485 | 167.73491 | 32807 ft | 486 kts | 50° |
| 2026-04-27 05:33 | -5.78256 | 167.78767 | 32808 ft | 485 kts | 50° |
| 2026-04-27 05:34 | -5.74021 | 167.84049 | 32806 ft | 486 kts | 50° |
| 2026-04-27 05:34 | -5.69793 | 167.89320 | 32806 ft | 485 kts | 50° |
| 2026-04-27 05:35 | -5.65564 | 167.94592 | 32806 ft | 485 kts | 50° |
| 2026-04-27 05:35 | -5.61343 | 167.99852 | 32808 ft | 485 kts | 50° |
| 2026-04-27 05:36 | -5.57121 | 168.05112 | 32808 ft | 485 kts | 50° |
| 2026-04-27 05:36 | -5.52887 | 168.10385 | 32813 ft | 485 kts | 50° |
| 2026-04-27 05:37 | -5.48655 | 168.15654 | 32818 ft | 486 kts | 50° |
| 2026-04-27 05:37 | -5.44429 | 168.20915 | 32821 ft | 485 kts | 50° |
| 2026-04-27 05:38 | -5.40192 | 168.26189 | 32826 ft | 485 kts | 50° |
| 2026-04-27 05:38 | -5.35959 | 168.31456 | 32827 ft | 486 kts | 50° |
| 2026-04-27 05:39 | -5.31725 | 168.36722 | 32826 ft | 485 kts | 50° |
| 2026-04-27 05:39 | -5.27494 | 168.41985 | 32826 ft | 485 kts | 50° |
| 2026-04-27 05:40 | -5.23259 | 168.47250 | 32825 ft | 486 kts | 49° |
| 2026-04-27 05:40 | -5.19009 | 168.52533 | 32819 ft | 486 kts | 49° |
| 2026-04-27 05:41 | -5.14771 | 168.57800 | 32809 ft | 486 kts | 50° |
| 2026-04-27 05:41 | -5.10508 | 168.63097 | 32807 ft | 487 kts | 50° |
| 2026-04-27 05:42 | -5.06270 | 168.68362 | 32805 ft | 488 kts | 49° |
| 2026-04-27 05:42 | -5.01998 | 168.73666 | 32804 ft | 487 kts | 50° |
| 2026-04-27 05:43 | -4.97767 | 168.78922 | 32804 ft | 485 kts | 49° |
| 2026-04-27 05:43 | -4.93503 | 168.84215 | 32804 ft | 487 kts | 49° |
| 2026-04-27 05:44 | -4.89267 | 168.89471 | 32806 ft | 487 kts | 49° |
| 2026-04-27 05:44 | -4.85004 | 168.94760 | 32806 ft | 488 kts | 49° |
| 2026-04-27 05:45 | -4.80726 | 169.00067 | 32810 ft | 489 kts | 49° |
| 2026-04-27 05:45 | -4.76451 | 169.05370 | 32811 ft | 488 kts | 49° |
| 2026-04-27 05:46 | -4.72180 | 169.10666 | 32811 ft | 488 kts | 49° |
| 2026-04-27 05:46 | -4.67939 | 169.15922 | 32806 ft | 487 kts | 49° |
| 2026-04-27 05:47 | -4.63662 | 169.21223 | 32807 ft | 488 kts | 49° |
| 2026-04-27 05:47 | -4.59383 | 169.26526 | 32809 ft | 490 kts | 49° |
| 2026-04-27 05:48 | -4.55119 | 169.31808 | 32808 ft | 490 kts | 49° |
| 2026-04-27 05:48 | -4.50834 | 169.37117 | 32807 ft | 490 kts | 49° |
| 2026-04-27 05:49 | -4.46545 | 169.42427 | 32811 ft | 489 kts | 49° |
| 2026-04-27 05:49 | -4.42260 | 169.47733 | 32822 ft | 489 kts | 49° |
| 2026-04-27 05:50 | -4.37974 | 169.53038 | 32829 ft | 490 kts | 49° |
| 2026-04-27 05:50 | -4.33702 | 169.58325 | 32827 ft | 490 kts | 49° |
| 2026-04-27 05:51 | -4.29400 | 169.63649 | 32829 ft | 492 kts | 49° |
| 2026-04-27 05:51 | -4.25090 | 169.68980 | 32825 ft | 492 kts | 49° |
| 2026-04-27 05:52 | -4.20775 | 169.74318 | 32822 ft | 494 kts | 49° |
| 2026-04-27 05:52 | -4.16471 | 169.79640 | 32821 ft | 492 kts | 49° |
| 2026-04-27 05:53 | -4.12151 | 169.84982 | 32821 ft | 491 kts | 50° |
| 2026-04-27 05:53 | -4.07848 | 169.90302 | 32826 ft | 492 kts | 50° |
| 2026-04-27 05:54 | -4.03537 | 169.95628 | 32823 ft | 494 kts | 50° |
| 2026-04-27 05:54 | -3.99199 | 170.01001 | 32809 ft | 495 kts | 51° |
| 2026-04-27 05:55 | -3.95269 | 170.06641 | 32804 ft | 495 kts | 54° |
| 2026-04-27 05:55 | -3.91373 | 170.12320 | 32805 ft | 493 kts | 54° |
| 2026-04-27 05:56 | -3.87474 | 170.17969 | 32807 ft | 492 kts | 54° |
| 2026-04-27 05:56 | -3.83591 | 170.23575 | 32808 ft | 491 kts | 54° |
| 2026-04-27 05:57 | -3.79678 | 170.29213 | 32808 ft | 492 kts | 54° |
| 2026-04-27 05:57 | -3.75793 | 170.34802 | 32807 ft | 490 kts | 54° |
| 2026-04-27 05:58 | -3.71937 | 170.40349 | 32809 ft | 486 kts | 54° |
| 2026-04-27 05:58 | -3.68056 | 170.45927 | 32807 ft | 486 kts | 54° |
| 2026-04-27 05:59 | -3.64204 | 170.51462 | 32808 ft | 487 kts | 54° |
| 2026-04-27 05:59 | -3.60321 | 170.57039 | 32807 ft | 487 kts | 54° |
| 2026-04-27 06:00 | -3.54523 | 170.65364 | 32807 ft | 487 kts | 54° |
| 2026-04-27 06:00 | -3.50662 | 170.70909 | 32807 ft | 483 kts | 54° |
| 2026-04-27 06:01 | -3.46804 | 170.76447 | 32811 ft | 484 kts | 54° |
| 2026-04-27 06:01 | -3.42956 | 170.81969 | 32822 ft | 483 kts | 54° |
| 2026-04-27 06:02 | -3.39133 | 170.87454 | 32823 ft | 485 kts | 54° |
| 2026-04-27 06:02 | -3.35285 | 170.92976 | 32826 ft | 485 kts | 54° |
| 2026-04-27 06:03 | -3.31426 | 170.98512 | 32827 ft | 485 kts | 54° |
| 2026-04-27 06:03 | -3.27560 | 171.04057 | 32822 ft | 484 kts | 54° |
| 2026-04-27 06:04 | -3.23720 | 171.09564 | 32824 ft | 484 kts | 54° |
| 2026-04-27 06:04 | -3.19886 | 171.15062 | 32824 ft | 481 kts | 54° |
| 2026-04-27 06:05 | -3.16045 | 171.20569 | 32830 ft | 482 kts | 54° |
| 2026-04-27 06:05 | -3.12194 | 171.26090 | 32826 ft | 483 kts | 54° |
| 2026-04-27 06:06 | -3.08374 | 171.31563 | 32825 ft | 480 kts | 55° |
| 2026-04-27 06:06 | -3.04522 | 171.37082 | 32825 ft | 481 kts | 55° |
| 2026-04-27 06:07 | -3.00704 | 171.42554 | 32820 ft | 481 kts | 55° |
| 2026-04-27 06:07 | -2.96882 | 171.48030 | 32812 ft | 480 kts | 55° |
| 2026-04-27 06:08 | -2.93044 | 171.53528 | 32803 ft | 483 kts | 55° |
| 2026-04-27 06:08 | -2.89220 | 171.59004 | 32806 ft | 481 kts | 55° |
| 2026-04-27 06:09 | -2.85371 | 171.64516 | 32805 ft | 483 kts | 56° |
| 2026-04-27 06:09 | -2.81550 | 171.69986 | 32807 ft | 481 kts | 55° |
| 2026-04-27 06:10 | -2.77723 | 171.75467 | 32819 ft | 482 kts | 55° |
| 2026-04-27 06:10 | -2.73881 | 171.80966 | 32825 ft | 481 kts | 56° |
| 2026-04-27 06:11 | -2.70059 | 171.86435 | 32830 ft | 481 kts | 56° |
| 2026-04-27 06:11 | -2.66220 | 171.91930 | 32826 ft | 482 kts | 55° |
| 2026-04-27 06:12 | -2.62376 | 171.97430 | 32826 ft | 484 kts | 55° |
| 2026-04-27 06:12 | -2.58535 | 172.02927 | 32827 ft | 480 kts | 55° |
| 2026-04-27 06:13 | -2.54703 | 172.08408 | 32828 ft | 480 kts | 55° |
| 2026-04-27 06:13 | -2.50877 | 172.13879 | 32824 ft | 482 kts | 55° |
| 2026-04-27 06:14 | -2.47036 | 172.19374 | 32827 ft | 481 kts | 55° |
| 2026-04-27 06:14 | -2.43214 | 172.24840 | 32826 ft | 482 kts | 55° |
| 2026-04-27 06:15 | -2.39361 | 172.30348 | 32829 ft | 482 kts | 54° |
| 2026-04-27 06:15 | -2.35530 | 172.35826 | 32824 ft | 483 kts | 54° |
| 2026-04-27 06:16 | -2.31672 | 172.41341 | 32824 ft | 481 kts | 54° |
| 2026-04-27 06:16 | -2.27840 | 172.46819 | 32825 ft | 482 kts | 54° |
| 2026-04-27 06:17 | -2.23986 | 172.52327 | 32821 ft | 484 kts | 54° |
| 2026-04-27 06:17 | -2.20146 | 172.57812 | 32820 ft | 483 kts | 54° |
| 2026-04-27 06:18 | -2.16283 | 172.63335 | 32812 ft | 483 kts | 54° |
| 2026-04-27 06:18 | -2.12448 | 172.68813 | 32807 ft | 484 kts | 54° |
| 2026-04-27 06:19 | -2.08573 | 172.74348 | 32805 ft | 484 kts | 54° |
| 2026-04-27 06:19 | -2.04723 | 172.79849 | 32805 ft | 484 kts | 54° |
| 2026-04-27 06:20 | -2.00859 | 172.85368 | 32806 ft | 485 kts | 54° |
| 2026-04-27 06:20 | -1.97006 | 172.90871 | 32805 ft | 484 kts | 54° |
| 2026-04-27 06:21 | -1.93158 | 172.96365 | 32805 ft | 484 kts | 54° |
| 2026-04-27 06:21 | -1.89275 | 173.01912 | 32806 ft | 484 kts | 54° |
| 2026-04-27 06:22 | -1.85421 | 173.07416 | 32808 ft | 485 kts | 54° |
| 2026-04-27 06:22 | -1.81533 | 173.12965 | 32808 ft | 486 kts | 54° |
| 2026-04-27 06:23 | -1.77673 | 173.18477 | 32808 ft | 485 kts | 54° |
| 2026-04-27 06:23 | -1.73807 | 173.23994 | 32810 ft | 487 kts | 54° |
| 2026-04-27 06:24 | -1.69924 | 173.29536 | 32816 ft | 486 kts | 54° |
| 2026-04-27 06:24 | -1.66046 | 173.35072 | 32825 ft | 486 kts | 54° |
| 2026-04-27 06:25 | -1.62168 | 173.40607 | 32828 ft | 486 kts | 54° |
| 2026-04-27 06:25 | -1.58309 | 173.46114 | 32827 ft | 486 kts | 54° |
| 2026-04-27 06:26 | -1.54426 | 173.51653 | 32828 ft | 486 kts | 54° |
| 2026-04-27 06:26 | -1.50547 | 173.57188 | 32828 ft | 487 kts | 54° |
| 2026-04-27 06:27 | -1.46660 | 173.62735 | 32827 ft | 487 kts | 54° |
| 2026-04-27 06:27 | -1.42776 | 173.68274 | 32827 ft | 487 kts | 54° |
| 2026-04-27 06:28 | -1.38881 | 173.73831 | 32831 ft | 486 kts | 54° |
| 2026-04-27 06:28 | -1.35005 | 173.79359 | 32831 ft | 486 kts | 54° |
| 2026-04-27 06:29 | -1.31122 | 173.84898 | 32827 ft | 486 kts | 54° |
| 2026-04-27 06:29 | -1.27250 | 173.90420 | 32828 ft | 485 kts | 54° |
| 2026-04-27 06:30 | -1.23373 | 173.95949 | 32829 ft | 486 kts | 54° |
| 2026-04-27 06:30 | -1.19491 | 174.01485 | 32829 ft | 486 kts | 54° |
| 2026-04-27 06:31 | -1.15612 | 174.07016 | 32826 ft | 487 kts | 54° |
| 2026-04-27 06:31 | -1.11729 | 174.12553 | 32827 ft | 487 kts | 54° |
| 2026-04-27 06:32 | -1.07860 | 174.18069 | 32826 ft | 488 kts | 54° |
| 2026-04-27 06:32 | -1.03970 | 174.23616 | 32829 ft | 488 kts | 54° |
| 2026-04-27 06:33 | -1.00059 | 174.29192 | 32820 ft | 488 kts | 54° |
| 2026-04-27 06:33 | -0.96174 | 174.34729 | 32809 ft | 488 kts | 54° |
| 2026-04-27 06:34 | -0.92273 | 174.40291 | 32806 ft | 488 kts | 54° |
| 2026-04-27 06:34 | -0.88392 | 174.45824 | 32807 ft | 488 kts | 54° |
| 2026-04-27 06:35 | -0.84487 | 174.51390 | 32808 ft | 487 kts | 54° |
| 2026-04-27 06:35 | -0.80603 | 174.56926 | 32810 ft | 487 kts | 54° |
| 2026-04-27 06:36 | -0.76714 | 174.62470 | 32810 ft | 488 kts | 54° |
| 2026-04-27 06:36 | -0.72816 | 174.68024 | 32812 ft | 488 kts | 54° |
| 2026-04-27 06:37 | -0.68925 | 174.73570 | 32816 ft | 487 kts | 54° |
| 2026-04-27 06:37 | -0.65020 | 174.79135 | 32815 ft | 488 kts | 54° |
| 2026-04-27 06:38 | -0.61133 | 174.84676 | 32815 ft | 487 kts | 54° |
| 2026-04-27 06:38 | -0.57246 | 174.90213 | 32820 ft | 487 kts | 55° |
| 2026-04-27 06:39 | -0.53359 | 174.95752 | 32820 ft | 488 kts | 54° |
| 2026-04-27 06:39 | -0.49482 | 175.01277 | 32825 ft | 487 kts | 54° |
| 2026-04-27 06:40 | -0.45601 | 175.06808 | 32827 ft | 487 kts | 54° |
| 2026-04-27 06:40 | -0.41696 | 175.12373 | 32826 ft | 487 kts | 54° |
| 2026-04-27 06:41 | -0.37823 | 175.17891 | 32827 ft | 488 kts | 55° |
| 2026-04-27 06:41 | -0.33916 | 175.23457 | 32826 ft | 488 kts | 55° |
| 2026-04-27 06:42 | -0.30010 | 175.29024 | 32826 ft | 487 kts | 55° |
| 2026-04-27 06:42 | -0.26131 | 175.34551 | 32826 ft | 487 kts | 55° |
| 2026-04-27 06:43 | -0.22255 | 175.40073 | 32826 ft | 486 kts | 55° |
| 2026-04-27 06:43 | -0.18365 | 175.45616 | 32827 ft | 490 kts | 54° |
| 2026-04-27 06:44 | -0.14462 | 175.51176 | 32827 ft | 491 kts | 55° |
| 2026-04-27 06:44 | -0.10538 | 175.56767 | 32826 ft | 491 kts | 55° |
| 2026-04-27 06:45 | -0.06639 | 175.62321 | 32827 ft | 490 kts | 55° |
| 2026-04-27 06:45 | -0.02728 | 175.67896 | 32829 ft | 491 kts | 55° |
| 2026-04-27 06:46 | 0.01191 | 175.73479 | 32828 ft | 493 kts | 55° |
| 2026-04-27 06:46 | 0.05144 | 175.79111 | 32825 ft | 494 kts | 55° |
| 2026-04-27 06:47 | 0.09093 | 175.84737 | 32830 ft | 495 kts | 55° |
| 2026-04-27 06:47 | 0.13015 | 175.90324 | 32828 ft | 493 kts | 55° |
| 2026-04-27 06:48 | 0.16948 | 175.95929 | 32817 ft | 492 kts | 55° |
| 2026-04-27 06:48 | 0.20880 | 176.01531 | 32810 ft | 494 kts | 55° |
| 2026-04-27 06:49 | 0.24817 | 176.07141 | 32807 ft | 493 kts | 55° |
| 2026-04-27 06:49 | 0.28769 | 176.12772 | 32815 ft | 494 kts | 55° |
| 2026-04-27 06:50 | 0.32690 | 176.18358 | 32821 ft | 494 kts | 55° |
| 2026-04-27 06:50 | 0.36639 | 176.23985 | 32824 ft | 492 kts | 54° |
| 2026-04-27 06:51 | 0.40542 | 176.29546 | 32829 ft | 492 kts | 54° |
| 2026-04-27 06:51 | 0.44474 | 176.35150 | 32826 ft | 492 kts | 54° |
| 2026-04-27 06:52 | 0.48398 | 176.40741 | 32827 ft | 492 kts | 54° |
| 2026-04-27 06:52 | 0.52336 | 176.46352 | 32825 ft | 491 kts | 54° |
| 2026-04-27 06:53 | 0.56238 | 176.51914 | 32827 ft | 490 kts | 54° |
| 2026-04-27 06:53 | 0.60162 | 176.57504 | 32827 ft | 489 kts | 54° |
| 2026-04-27 06:54 | 0.64071 | 176.63075 | 32826 ft | 490 kts | 54° |
| 2026-04-27 06:54 | 0.67973 | 176.68637 | 32827 ft | 490 kts | 54° |
| 2026-04-27 06:55 | 0.71888 | 176.74216 | 32825 ft | 490 kts | 54° |
| 2026-04-27 06:55 | 0.75783 | 176.79767 | 32826 ft | 490 kts | 54° |
| 2026-04-27 06:56 | 0.79694 | 176.85341 | 32826 ft | 490 kts | 54° |
| 2026-04-27 06:56 | 0.83604 | 176.90915 | 32826 ft | 491 kts | 54° |
| 2026-04-27 06:57 | 0.87515 | 176.96489 | 32826 ft | 490 kts | 54° |
| 2026-04-27 06:57 | 0.91442 | 177.02086 | 32828 ft | 490 kts | 54° |
| 2026-04-27 06:58 | 0.97309 | 177.10449 | 32825 ft | 491 kts | 54° |
| 2026-04-27 06:59 | 1.01231 | 177.16042 | 32826 ft | 492 kts | 54° |
| 2026-04-27 06:59 | 1.05154 | 177.21635 | 32825 ft | 492 kts | 54° |
| 2026-04-27 07:00 | 1.09062 | 177.27206 | 32827 ft | 492 kts | 54° |
| 2026-04-27 07:00 | 1.12978 | 177.32790 | 32828 ft | 490 kts | 54° |
| 2026-04-27 07:01 | 1.16900 | 177.38384 | 32830 ft | 491 kts | 54° |
| 2026-04-27 07:01 | 1.20802 | 177.43948 | 32843 ft | 490 kts | 54° |
| 2026-04-27 07:02 | 1.24708 | 177.49518 | 32850 ft | 489 kts | 54° |
| 2026-04-27 07:02 | 1.28627 | 177.55107 | 32853 ft | 491 kts | 54° |
| 2026-04-27 07:03 | 1.32521 | 177.60660 | 32844 ft | 490 kts | 54° |
| 2026-04-27 07:03 | 1.36430 | 177.66235 | 32840 ft | 491 kts | 54° |
| 2026-04-27 07:04 | 1.40336 | 177.71808 | 32831 ft | 488 kts | 54° |
| 2026-04-27 07:04 | 1.44240 | 177.77376 | 32833 ft | 488 kts | 54° |
| 2026-04-27 07:05 | 1.48135 | 177.82935 | 32828 ft | 489 kts | 54° |
| 2026-04-27 07:05 | 1.52026 | 177.88486 | 32829 ft | 488 kts | 54° |
| 2026-04-27 07:06 | 1.55905 | 177.94020 | 32826 ft | 488 kts | 54° |
| 2026-04-27 07:06 | 1.59803 | 177.99582 | 32826 ft | 487 kts | 54° |
| 2026-04-27 07:07 | 1.63664 | 178.05092 | 32830 ft | 486 kts | 54° |
| 2026-04-27 07:07 | 1.67542 | 178.10626 | 32827 ft | 484 kts | 54° |
| 2026-04-27 07:08 | 1.71415 | 178.16154 | 32828 ft | 484 kts | 54° |
| 2026-04-27 07:08 | 1.75276 | 178.21666 | 32829 ft | 485 kts | 54° |
| 2026-04-27 07:09 | 1.79141 | 178.27184 | 32827 ft | 485 kts | 54° |
| 2026-04-27 07:09 | 1.82992 | 178.32681 | 32828 ft | 484 kts | 54° |
| 2026-04-27 07:10 | 1.86871 | 178.38219 | 32826 ft | 484 kts | 54° |
| 2026-04-27 07:10 | 1.90721 | 178.43716 | 32825 ft | 484 kts | 54° |
| 2026-04-27 07:11 | 1.94575 | 178.49220 | 32827 ft | 486 kts | 54° |
| 2026-04-27 07:11 | 1.98455 | 178.54761 | 32826 ft | 485 kts | 54° |
| 2026-04-27 07:12 | 2.02316 | 178.60274 | 32825 ft | 486 kts | 54° |
| 2026-04-27 07:12 | 2.06210 | 178.65837 | 32826 ft | 487 kts | 54° |
| 2026-04-27 07:13 | 2.10080 | 178.71365 | 32826 ft | 486 kts | 54° |
| 2026-04-27 07:13 | 2.13957 | 178.76906 | 32833 ft | 485 kts | 54° |
| 2026-04-27 07:14 | 2.17813 | 178.82416 | 32837 ft | 486 kts | 54° |
| 2026-04-27 07:14 | 2.21687 | 178.87952 | 32842 ft | 486 kts | 54° |
| 2026-04-27 07:15 | 2.25580 | 178.93515 | 32848 ft | 487 kts | 54° |
| 2026-04-27 07:15 | 2.29468 | 178.99072 | 32848 ft | 487 kts | 54° |
| 2026-04-27 07:16 | 2.33329 | 179.04590 | 32848 ft | 487 kts | 54° |
| 2026-04-27 07:16 | 2.37213 | 179.10144 | 32848 ft | 486 kts | 54° |
| 2026-04-27 07:17 | 2.41063 | 179.15648 | 32847 ft | 486 kts | 54° |
| 2026-04-27 07:17 | 2.44963 | 179.21225 | 32848 ft | 487 kts | 54° |
| 2026-04-27 07:18 | 2.48841 | 179.26772 | 32847 ft | 488 kts | 54° |
| 2026-04-27 07:18 | 2.52732 | 179.32336 | 32843 ft | 488 kts | 54° |
| 2026-04-27 07:19 | 2.56591 | 179.37857 | 32841 ft | 487 kts | 54° |
| 2026-04-27 07:19 | 2.60490 | 179.43436 | 32836 ft | 488 kts | 54° |
| 2026-04-27 07:20 | 2.64371 | 179.48987 | 32833 ft | 488 kts | 54° |
| 2026-04-27 07:20 | 2.68241 | 179.54524 | 32830 ft | 488 kts | 54° |
| 2026-04-27 07:21 | 2.72130 | 179.60091 | 32827 ft | 489 kts | 54° |
| 2026-04-27 07:21 | 2.76022 | 179.65662 | 32827 ft | 489 kts | 54° |
| 2026-04-27 07:22 | 2.79909 | 179.71227 | 32826 ft | 488 kts | 54° |
| 2026-04-27 07:22 | 2.83812 | 179.76814 | 32824 ft | 488 kts | 54° |
| 2026-04-27 07:23 | 2.87705 | 179.82390 | 32826 ft | 489 kts | 54° |
| 2026-04-27 07:23 | 2.91584 | 179.87944 | 32826 ft | 488 kts | 54° |
| 2026-04-27 07:24 | 2.95465 | 179.93503 | 32826 ft | 488 kts | 54° |
| 2026-04-27 07:24 | 2.99330 | 179.99040 | 32825 ft | 487 kts | 54° |
| 2026-04-27 07:25 | 3.03279 | -179.95398 | 33007 ft | 494 kts | 53° |
| 2026-04-27 07:25 | 3.05292 | -179.92592 | 33437 ft | 493 kts | 53° |
| 2026-04-27 07:25 | 3.07269 | -179.89836 | 33968 ft | 490 kts | 53° |
| 2026-04-27 07:25 | 3.09269 | -179.87047 | 34484 ft | 488 kts | 53° |
| 2026-04-27 07:26 | 3.11239 | -179.84297 | 34831 ft | 488 kts | 53° |
| 2026-04-27 07:26 | 3.15183 | -179.78792 | 34841 ft | 487 kts | 53° |
| 2026-04-27 07:27 | 3.19152 | -179.73248 | 34849 ft | 487 kts | 53° |
| 2026-04-27 07:27 | 3.23186 | -179.67612 | 34850 ft | 486 kts | 53° |
| 2026-04-27 07:28 | 3.27124 | -179.62109 | 34849 ft | 486 kts | 53° |
| 2026-04-27 07:28 | 3.31081 | -179.56580 | 34849 ft | 486 kts | 53° |
| 2026-04-27 07:29 | 3.35012 | -179.51085 | 34849 ft | 487 kts | 53° |
| 2026-04-27 07:29 | 3.38938 | -179.45595 | 34847 ft | 486 kts | 53° |
| 2026-04-27 07:30 | 3.42882 | -179.40080 | 34847 ft | 486 kts | 53° |
| 2026-04-27 07:30 | 3.46822 | -179.34570 | 34847 ft | 487 kts | 53° |
| 2026-04-27 07:31 | 3.50763 | -179.29057 | 34847 ft | 487 kts | 53° |
| 2026-04-27 07:31 | 3.54697 | -179.23553 | 34847 ft | 487 kts | 53° |
| 2026-04-27 07:32 | 3.58626 | -179.18056 | 34847 ft | 486 kts | 53° |
| 2026-04-27 07:32 | 3.62571 | -179.12534 | 34847 ft | 486 kts | 53° |
| 2026-04-27 07:33 | 3.66474 | -179.07071 | 34847 ft | 486 kts | 53° |
| 2026-04-27 07:33 | 3.70428 | -179.01535 | 34847 ft | 487 kts | 53° |
| 2026-04-27 07:34 | 3.74363 | -178.96025 | 34846 ft | 487 kts | 53° |
| 2026-04-27 07:34 | 3.78293 | -178.90521 | 34845 ft | 487 kts | 53° |
| 2026-04-27 07:35 | 3.82232 | -178.85004 | 34845 ft | 487 kts | 53° |
| 2026-04-27 07:35 | 3.86165 | -178.79494 | 34845 ft | 486 kts | 53° |
| 2026-04-27 07:36 | 3.90086 | -178.73999 | 34844 ft | 486 kts | 53° |
| 2026-04-27 07:36 | 3.94022 | -178.68483 | 34845 ft | 486 kts | 53° |
| 2026-04-27 07:37 | 3.97969 | -178.62949 | 34846 ft | 487 kts | 53° |
| 2026-04-27 07:37 | 4.01887 | -178.57455 | 34838 ft | 487 kts | 53° |
| 2026-04-27 07:38 | 4.05838 | -178.51915 | 34841 ft | 486 kts | 53° |
| 2026-04-27 07:38 | 4.09753 | -178.46423 | 34835 ft | 487 kts | 53° |
| 2026-04-27 07:39 | 4.13691 | -178.40900 | 34840 ft | 487 kts | 53° |
| 2026-04-27 07:39 | 4.17631 | -178.35370 | 34847 ft | 486 kts | 53° |
| 2026-04-27 07:40 | 4.21564 | -178.29851 | 34850 ft | 486 kts | 53° |
| 2026-04-27 07:40 | 4.25481 | -178.24352 | 34852 ft | 487 kts | 53° |
| 2026-04-27 07:41 | 4.29421 | -178.18820 | 34852 ft | 487 kts | 53° |
| 2026-04-27 07:41 | 4.33342 | -178.13315 | 34850 ft | 486 kts | 53° |
| 2026-04-27 07:42 | 4.37282 | -178.07781 | 34849 ft | 486 kts | 53° |
| 2026-04-27 07:42 | 4.41210 | -178.02261 | 34849 ft | 486 kts | 53° |
| 2026-04-27 07:43 | 4.45139 | -177.96742 | 34850 ft | 486 kts | 53° |
| 2026-04-27 07:43 | 4.49058 | -177.91234 | 34848 ft | 486 kts | 53° |
| 2026-04-27 07:44 | 4.52988 | -177.85709 | 34848 ft | 486 kts | 53° |
| 2026-04-27 07:44 | 4.56902 | -177.80206 | 34847 ft | 486 kts | 53° |
| 2026-04-27 07:45 | 4.60833 | -177.74677 | 34849 ft | 486 kts | 53° |
| 2026-04-27 07:45 | 4.64749 | -177.69170 | 34849 ft | 486 kts | 53° |
| 2026-04-27 07:46 | 4.68684 | -177.63632 | 34849 ft | 486 kts | 53° |
| 2026-04-27 07:46 | 4.72595 | -177.58128 | 34847 ft | 486 kts | 53° |
| 2026-04-27 07:47 | 4.76499 | -177.52632 | 34847 ft | 486 kts | 53° |
| 2026-04-27 07:47 | 4.80428 | -177.47101 | 34847 ft | 487 kts | 53° |
| 2026-04-27 07:48 | 4.84348 | -177.41580 | 34849 ft | 486 kts | 53° |
| 2026-04-27 07:48 | 4.88269 | -177.36057 | 34852 ft | 486 kts | 53° |
| 2026-04-27 07:49 | 4.92193 | -177.30528 | 34852 ft | 486 kts | 53° |
| 2026-04-27 07:49 | 4.96104 | -177.25017 | 34861 ft | 485 kts | 53° |
| 2026-04-27 07:50 | 5.00025 | -177.19490 | 34867 ft | 486 kts | 53° |
| 2026-04-27 07:50 | 5.03936 | -177.13977 | 34866 ft | 486 kts | 53° |
| 2026-04-27 07:51 | 5.07866 | -177.08434 | 34869 ft | 486 kts | 53° |
| 2026-04-27 07:51 | 5.11786 | -177.02904 | 34869 ft | 487 kts | 53° |
| 2026-04-27 07:52 | 5.15718 | -176.97357 | 34869 ft | 487 kts | 53° |
| 2026-04-27 07:52 | 5.19628 | -176.91838 | 34869 ft | 487 kts | 53° |
| 2026-04-27 07:53 | 5.23541 | -176.86314 | 34869 ft | 487 kts | 53° |
| 2026-04-27 07:53 | 5.27485 | -176.80747 | 34870 ft | 489 kts | 54° |
| 2026-04-27 07:54 | 5.31411 | -176.75201 | 34869 ft | 488 kts | 53° |
| 2026-04-27 07:54 | 5.35336 | -176.69656 | 34869 ft | 489 kts | 54° |
| 2026-04-27 07:55 | 5.39278 | -176.64085 | 34870 ft | 490 kts | 54° |
| 2026-04-27 07:55 | 5.43236 | -176.58491 | 34869 ft | 490 kts | 53° |
| 2026-04-27 07:56 | 5.47193 | -176.52898 | 34870 ft | 492 kts | 53° |
| 2026-04-27 07:56 | 5.51152 | -176.47298 | 34873 ft | 491 kts | 54° |
| 2026-04-27 07:57 | 5.55119 | -176.41687 | 34873 ft | 494 kts | 54° |
| 2026-04-27 07:57 | 5.59090 | -176.36069 | 34869 ft | 493 kts | 54° |
| 2026-04-27 07:58 | 5.63080 | -176.30421 | 34883 ft | 496 kts | 54° |
| 2026-04-27 07:58 | 5.67056 | -176.24794 | 34866 ft | 495 kts | 54° |
| 2026-04-27 07:59 | 5.71043 | -176.19148 | 34862 ft | 496 kts | 54° |
| 2026-04-27 07:59 | 5.77031 | -176.10664 | 34864 ft | 497 kts | 54° |
| 2026-04-27 08:00 | 5.81028 | -176.05000 | 34866 ft | 498 kts | 54° |
| 2026-04-27 08:00 | 5.85023 | -175.99338 | 34869 ft | 496 kts | 54° |
| 2026-04-27 08:01 | 5.89009 | -175.93687 | 34867 ft | 497 kts | 54° |
| 2026-04-27 08:01 | 5.93026 | -175.87990 | 34868 ft | 501 kts | 54° |
| 2026-04-27 08:02 | 5.97025 | -175.82315 | 34873 ft | 499 kts | 54° |
| 2026-04-27 08:02 | 6.01040 | -175.76617 | 34879 ft | 498 kts | 54° |
| 2026-04-27 08:03 | 6.05050 | -175.70926 | 34877 ft | 501 kts | 54° |
| 2026-04-27 08:03 | 6.09065 | -175.65225 | 34880 ft | 501 kts | 54° |
| 2026-04-27 08:04 | 6.13098 | -175.59497 | 34875 ft | 500 kts | 54° |
| 2026-04-27 08:04 | 6.17109 | -175.53798 | 34877 ft | 502 kts | 54° |
| 2026-04-27 08:05 | 6.21149 | -175.48056 | 34876 ft | 503 kts | 54° |
| 2026-04-27 08:05 | 6.25173 | -175.42334 | 34877 ft | 503 kts | 53° |
| 2026-04-27 08:06 | 6.29231 | -175.36565 | 34876 ft | 503 kts | 54° |
| 2026-04-27 08:06 | 6.33278 | -175.30806 | 34870 ft | 504 kts | 54° |
| 2026-04-27 08:07 | 6.37368 | -175.24986 | 34869 ft | 504 kts | 54° |
| 2026-04-27 08:07 | 6.41409 | -175.19234 | 34869 ft | 505 kts | 54° |
| 2026-04-27 08:08 | 6.45472 | -175.13451 | 34869 ft | 507 kts | 53° |
| 2026-04-27 08:08 | 6.49513 | -175.07693 | 34868 ft | 507 kts | 53° |
| 2026-04-27 08:09 | 6.53572 | -175.01910 | 34870 ft | 506 kts | 53° |
| 2026-04-27 08:09 | 6.57660 | -174.96085 | 34868 ft | 507 kts | 53° |
| 2026-04-27 08:10 | 6.61714 | -174.90305 | 34872 ft | 508 kts | 53° |
| 2026-04-27 08:10 | 6.65774 | -174.84514 | 34868 ft | 508 kts | 53° |
| 2026-04-27 08:11 | 6.69849 | -174.78700 | 34871 ft | 508 kts | 53° |
| 2026-04-27 08:11 | 6.73908 | -174.72908 | 34874 ft | 507 kts | 53° |
| 2026-04-27 08:12 | 6.77969 | -174.67110 | 34872 ft | 508 kts | 53° |
| 2026-04-27 08:12 | 6.82048 | -174.61285 | 34870 ft | 509 kts | 53° |
| 2026-04-27 08:13 | 6.86127 | -174.55458 | 34871 ft | 507 kts | 53° |
| 2026-04-27 08:13 | 6.90182 | -174.49663 | 34872 ft | 508 kts | 53° |
| 2026-04-27 08:14 | 6.94256 | -174.43839 | 34873 ft | 508 kts | 53° |
| 2026-04-27 08:14 | 6.98323 | -174.38020 | 34874 ft | 507 kts | 53° |
| 2026-04-27 08:15 | 7.02392 | -174.32201 | 34874 ft | 507 kts | 53° |
| 2026-04-27 08:15 | 7.06440 | -174.26407 | 34888 ft | 508 kts | 54° |
| 2026-04-27 08:16 | 7.10540 | -174.20538 | 34889 ft | 509 kts | 54° |
| 2026-04-27 08:16 | 7.14594 | -174.14732 | 34887 ft | 510 kts | 54° |
| 2026-04-27 08:17 | 7.18687 | -174.08868 | 34888 ft | 509 kts | 54° |
| 2026-04-27 08:17 | 7.22753 | -174.03041 | 34889 ft | 508 kts | 54° |
| 2026-04-27 08:18 | 7.26805 | -173.97232 | 34889 ft | 507 kts | 54° |
| 2026-04-27 08:18 | 7.30848 | -173.91434 | 34891 ft | 508 kts | 53° |
| 2026-04-27 08:19 | 7.34915 | -173.85597 | 34883 ft | 508 kts | 54° |
| 2026-04-27 08:19 | 7.38980 | -173.79764 | 34885 ft | 508 kts | 54° |
| 2026-04-27 08:20 | 7.43039 | -173.73936 | 34879 ft | 509 kts | 53° |
| 2026-04-27 08:20 | 7.47117 | -173.68079 | 34879 ft | 509 kts | 53° |
| 2026-04-27 08:21 | 7.51157 | -173.62274 | 34881 ft | 508 kts | 53° |
| 2026-04-27 08:21 | 7.55220 | -173.56435 | 34881 ft | 508 kts | 53° |
| 2026-04-27 08:22 | 7.59292 | -173.50580 | 34885 ft | 509 kts | 53° |
| 2026-04-27 08:22 | 7.63355 | -173.44736 | 34883 ft | 509 kts | 53° |
| 2026-04-27 08:23 | 7.67402 | -173.38910 | 34884 ft | 509 kts | 53° |
| 2026-04-27 08:23 | 7.71449 | -173.33084 | 34870 ft | 509 kts | 54° |
| 2026-04-27 08:24 | 7.75505 | -173.27243 | 34869 ft | 508 kts | 53° |
| 2026-04-27 08:24 | 7.79574 | -173.21382 | 34868 ft | 509 kts | 53° |
| 2026-04-27 08:25 | 7.83625 | -173.15544 | 34867 ft | 508 kts | 53° |
| 2026-04-27 08:25 | 7.87687 | -173.09686 | 34872 ft | 509 kts | 54° |
| 2026-04-27 08:26 | 7.91743 | -173.03836 | 34869 ft | 510 kts | 54° |
| 2026-04-27 08:26 | 7.95796 | -172.97987 | 34868 ft | 510 kts | 54° |
| 2026-04-27 08:27 | 7.99874 | -172.92102 | 34874 ft | 511 kts | 54° |
| 2026-04-27 08:27 | 8.03938 | -172.86232 | 34877 ft | 511 kts | 54° |
| 2026-04-27 08:28 | 8.07991 | -172.80377 | 34876 ft | 511 kts | 54° |
| 2026-04-27 08:28 | 8.12077 | -172.74472 | 34876 ft | 512 kts | 54° |
| 2026-04-27 08:29 | 8.16151 | -172.68582 | 34880 ft | 511 kts | 54° |
| 2026-04-27 08:29 | 8.20199 | -172.62724 | 34887 ft | 510 kts | 54° |
| 2026-04-27 08:30 | 8.24269 | -172.56834 | 34893 ft | 512 kts | 54° |
| 2026-04-27 08:30 | 8.28376 | -172.50890 | 34898 ft | 510 kts | 54° |
| 2026-04-27 08:31 | 8.32440 | -172.45004 | 34900 ft | 512 kts | 54° |
| 2026-04-27 08:31 | 8.36482 | -172.39148 | 34901 ft | 511 kts | 54° |
| 2026-04-27 08:32 | 8.40556 | -172.33241 | 34893 ft | 510 kts | 54° |
| 2026-04-27 08:32 | 8.44620 | -172.27350 | 34893 ft | 513 kts | 54° |
| 2026-04-27 08:33 | 8.48705 | -172.21423 | 34896 ft | 511 kts | 54° |
| 2026-04-27 08:33 | 8.52753 | -172.15547 | 34899 ft | 512 kts | 54° |
| 2026-04-27 08:34 | 8.56815 | -172.09650 | 34900 ft | 510 kts | 54° |
| 2026-04-27 08:34 | 8.60866 | -172.03764 | 34900 ft | 510 kts | 54° |
| 2026-04-27 08:35 | 8.64936 | -171.97850 | 34903 ft | 510 kts | 54° |
| 2026-04-27 08:35 | 8.68972 | -171.91981 | 34901 ft | 509 kts | 55° |
| 2026-04-27 08:36 | 8.73020 | -171.86095 | 34902 ft | 509 kts | 55° |
| 2026-04-27 08:36 | 8.77063 | -171.80211 | 34905 ft | 511 kts | 54° |
| 2026-04-27 08:37 | 8.81119 | -171.74306 | 34900 ft | 508 kts | 54° |
| 2026-04-27 08:37 | 8.85131 | -171.68462 | 34904 ft | 508 kts | 55° |
| 2026-04-27 08:38 | 8.89203 | -171.62529 | 34903 ft | 508 kts | 55° |
| 2026-04-27 08:38 | 8.93223 | -171.56670 | 34892 ft | 508 kts | 55° |
| 2026-04-27 08:39 | 8.97234 | -171.50818 | 34895 ft | 508 kts | 55° |
| 2026-04-27 08:39 | 9.01260 | -171.44945 | 34899 ft | 509 kts | 55° |
| 2026-04-27 08:40 | 9.05288 | -171.39064 | 34901 ft | 507 kts | 55° |
| 2026-04-27 08:40 | 9.09303 | -171.33200 | 34892 ft | 507 kts | 56° |
| 2026-04-27 08:41 | 9.13326 | -171.27322 | 34895 ft | 508 kts | 55° |
| 2026-04-27 08:41 | 9.17359 | -171.21426 | 34899 ft | 508 kts | 55° |
| 2026-04-27 08:42 | 9.21386 | -171.15536 | 34902 ft | 507 kts | 55° |
| 2026-04-27 08:42 | 9.25400 | -171.09665 | 34917 ft | 509 kts | 56° |
| 2026-04-27 08:43 | 9.29438 | -171.03752 | 34913 ft | 506 kts | 56° |
| 2026-04-27 08:43 | 9.33458 | -170.97867 | 34915 ft | 508 kts | 56° |
| 2026-04-27 08:44 | 9.37472 | -170.91985 | 34920 ft | 508 kts | 56° |
| 2026-04-27 08:44 | 9.41504 | -170.86075 | 34920 ft | 509 kts | 56° |
| 2026-04-27 08:45 | 9.45543 | -170.80150 | 34922 ft | 513 kts | 56° |
| 2026-04-27 08:45 | 9.49597 | -170.74202 | 34921 ft | 512 kts | 55° |
| 2026-04-27 08:46 | 9.53659 | -170.68239 | 34925 ft | 516 kts | 56° |
| 2026-04-27 08:46 | 9.57727 | -170.62265 | 34928 ft | 514 kts | 55° |
| 2026-04-27 08:47 | 9.61794 | -170.56288 | 34925 ft | 515 kts | 55° |
| 2026-04-27 08:47 | 9.65886 | -170.50272 | 34922 ft | 516 kts | 55° |
| 2026-04-27 08:48 | 9.70002 | -170.44217 | 34922 ft | 516 kts | 55° |
| 2026-04-27 08:48 | 9.74082 | -170.38214 | 34926 ft | 519 kts | 55° |
| 2026-04-27 08:49 | 9.78186 | -170.32172 | 34919 ft | 517 kts | 55° |
| 2026-04-27 08:49 | 9.82278 | -170.26143 | 34924 ft | 521 kts | 55° |
| 2026-04-27 08:50 | 9.86381 | -170.20094 | 34920 ft | 521 kts | 55° |
| 2026-04-27 08:50 | 9.90492 | -170.14032 | 34917 ft | 521 kts | 55° |
| 2026-04-27 08:51 | 9.94599 | -170.07974 | 34922 ft | 521 kts | 55° |
| 2026-04-27 08:51 | 9.98687 | -170.01939 | 34915 ft | 521 kts | 55° |
| 2026-04-27 08:52 | 10.02359 | -169.95520 | 34911 ft | 523 kts | 62° |
| 2026-04-27 08:52 | 10.05765 | -169.89052 | 34913 ft | 524 kts | 62° |
| 2026-04-27 08:53 | 10.09186 | -169.82546 | 34918 ft | 523 kts | 62° |
| 2026-04-27 08:53 | 10.12604 | -169.76044 | 34915 ft | 523 kts | 62° |
| 2026-04-27 08:54 | 10.16031 | -169.69522 | 34912 ft | 521 kts | 62° |
| 2026-04-27 08:54 | 10.19441 | -169.63026 | 34916 ft | 522 kts | 62° |
| 2026-04-27 08:55 | 10.22866 | -169.56500 | 34915 ft | 523 kts | 62° |
| 2026-04-27 08:55 | 10.26274 | -169.50001 | 34914 ft | 523 kts | 62° |
| 2026-04-27 08:56 | 10.29687 | -169.43491 | 34920 ft | 525 kts | 62° |
| 2026-04-27 08:56 | 10.33106 | -169.36964 | 34919 ft | 524 kts | 62° |
| 2026-04-27 08:57 | 10.38206 | -169.27220 | 34920 ft | 523 kts | 62° |
| 2026-04-27 08:58 | 10.41621 | -169.20691 | 34926 ft | 524 kts | 62° |
| 2026-04-27 08:58 | 10.45033 | -169.14165 | 34931 ft | 524 kts | 62° |
| 2026-04-27 08:59 | 10.48466 | -169.07594 | 34939 ft | 525 kts | 61° |
| 2026-04-27 08:59 | 10.51869 | -169.01074 | 34942 ft | 523 kts | 62° |
| 2026-04-27 09:00 | 10.55268 | -168.94562 | 34937 ft | 524 kts | 62° |
| 2026-04-27 09:00 | 10.58682 | -168.88014 | 34942 ft | 524 kts | 61° |
| 2026-04-27 09:01 | 10.62086 | -168.81482 | 34945 ft | 526 kts | 61° |
| 2026-04-27 09:01 | 10.65510 | -168.74908 | 34943 ft | 526 kts | 61° |
| 2026-04-27 09:02 | 10.68951 | -168.68298 | 34950 ft | 528 kts | 61° |
| 2026-04-27 09:02 | 10.72371 | -168.61722 | 34945 ft | 528 kts | 61° |
| 2026-04-27 09:03 | 10.75779 | -168.55165 | 34945 ft | 526 kts | 61° |
| 2026-04-27 09:03 | 10.79215 | -168.48552 | 34961 ft | 529 kts | 60° |
| 2026-04-27 09:04 | 10.82665 | -168.41907 | 34957 ft | 530 kts | 61° |
| 2026-04-27 09:04 | 10.86088 | -168.35310 | 34956 ft | 527 kts | 60° |
| 2026-04-27 09:05 | 10.89509 | -168.28713 | 34947 ft | 528 kts | 60° |
| 2026-04-27 09:05 | 10.92951 | -168.22069 | 34947 ft | 529 kts | 60° |
| 2026-04-27 09:06 | 10.96381 | -168.15445 | 34953 ft | 528 kts | 60° |
| 2026-04-27 09:06 | 10.99789 | -168.08861 | 34956 ft | 526 kts | 60° |
| 2026-04-27 09:07 | 11.03202 | -168.02260 | 34938 ft | 526 kts | 60° |
| 2026-04-27 09:07 | 11.06632 | -167.95624 | 34939 ft | 529 kts | 60° |
| 2026-04-27 09:08 | 11.10037 | -167.89031 | 34929 ft | 527 kts | 60° |
| 2026-04-27 09:08 | 11.13481 | -167.82359 | 34928 ft | 526 kts | 60° |
| 2026-04-27 09:09 | 11.16882 | -167.75764 | 34936 ft | 529 kts | 60° |
| 2026-04-27 09:09 | 11.20297 | -167.69139 | 34938 ft | 527 kts | 60° |
| 2026-04-27 09:10 | 11.23710 | -167.62515 | 34936 ft | 529 kts | 60° |
| 2026-04-27 09:10 | 11.27109 | -167.55911 | 34939 ft | 529 kts | 60° |
| 2026-04-27 09:11 | 11.30548 | -167.49226 | 34943 ft | 530 kts | 60° |
| 2026-04-27 09:11 | 11.33958 | -167.42593 | 34947 ft | 531 kts | 60° |
| 2026-04-27 09:12 | 11.37399 | -167.35896 | 34944 ft | 531 kts | 60° |
| 2026-04-27 09:12 | 11.40814 | -167.29244 | 34934 ft | 530 kts | 61° |
| 2026-04-27 09:13 | 11.44233 | -167.22580 | 34935 ft | 531 kts | 60° |
| 2026-04-27 09:13 | 11.47641 | -167.15933 | 34942 ft | 532 kts | 60° |
| 2026-04-27 09:14 | 11.51054 | -167.09271 | 34947 ft | 531 kts | 60° |
| 2026-04-27 09:14 | 11.54473 | -167.02593 | 34953 ft | 531 kts | 61° |
| 2026-04-27 09:15 | 11.57906 | -166.95886 | 34948 ft | 533 kts | 61° |
| 2026-04-27 09:15 | 11.61329 | -166.89189 | 34948 ft | 532 kts | 60° |
| 2026-04-27 09:16 | 11.64728 | -166.82536 | 34938 ft | 533 kts | 60° |
| 2026-04-27 09:16 | 11.68150 | -166.75835 | 34948 ft | 533 kts | 60° |
| 2026-04-27 09:17 | 11.71579 | -166.69115 | 34946 ft | 532 kts | 60° |
| 2026-04-27 09:17 | 11.75016 | -166.62372 | 34945 ft | 534 kts | 60° |
| 2026-04-27 09:18 | 11.78426 | -166.55681 | 34946 ft | 534 kts | 60° |
| 2026-04-27 09:18 | 11.81853 | -166.48950 | 34947 ft | 533 kts | 60° |
| 2026-04-27 09:19 | 11.85271 | -166.42232 | 34948 ft | 535 kts | 60° |
| 2026-04-27 09:19 | 11.88696 | -166.35495 | 34946 ft | 534 kts | 60° |
| 2026-04-27 09:20 | 11.92120 | -166.28754 | 34932 ft | 534 kts | 60° |
| 2026-04-27 09:20 | 11.95551 | -166.21997 | 34932 ft | 535 kts | 60° |
| 2026-04-27 09:21 | 11.98980 | -166.15237 | 34938 ft | 534 kts | 60° |
| 2026-04-27 09:21 | 12.02395 | -166.08501 | 34946 ft | 535 kts | 60° |
| 2026-04-27 09:22 | 12.05810 | -166.01761 | 34951 ft | 535 kts | 60° |
| 2026-04-27 09:22 | 12.09232 | -165.95000 | 34952 ft | 536 kts | 60° |
| 2026-04-27 09:23 | 12.12650 | -165.88242 | 34952 ft | 534 kts | 60° |
| 2026-04-27 09:23 | 12.16060 | -165.81496 | 34953 ft | 535 kts | 60° |
| 2026-04-27 09:24 | 12.19484 | -165.74718 | 34955 ft | 535 kts | 60° |
| 2026-04-27 09:24 | 12.22867 | -165.68015 | 34956 ft | 535 kts | 60° |
| 2026-04-27 09:25 | 12.26282 | -165.61243 | 34958 ft | 536 kts | 60° |
| 2026-04-27 09:25 | 12.29694 | -165.54474 | 34958 ft | 536 kts | 60° |
| 2026-04-27 09:26 | 12.33101 | -165.47708 | 34960 ft | 537 kts | 60° |
| 2026-04-27 09:26 | 12.36513 | -165.40927 | 34961 ft | 538 kts | 59° |
| 2026-04-27 09:27 | 12.39923 | -165.34146 | 34957 ft | 537 kts | 60° |
| 2026-04-27 09:27 | 12.43350 | -165.27325 | 34946 ft | 536 kts | 60° |
| 2026-04-27 09:28 | 12.46755 | -165.20543 | 34949 ft | 537 kts | 60° |
| 2026-04-27 09:28 | 12.50169 | -165.13739 | 34950 ft | 538 kts | 60° |
| 2026-04-27 09:29 | 12.53583 | -165.06928 | 34953 ft | 539 kts | 60° |
| 2026-04-27 09:29 | 12.56983 | -165.00140 | 34951 ft | 537 kts | 60° |
| 2026-04-27 09:30 | 12.60386 | -164.93341 | 34955 ft | 537 kts | 59° |
| 2026-04-27 09:30 | 12.63801 | -164.86514 | 34965 ft | 539 kts | 59° |
| 2026-04-27 09:31 | 12.67236 | -164.79642 | 34966 ft | 540 kts | 60° |
| 2026-04-27 09:31 | 12.70620 | -164.72865 | 34969 ft | 538 kts | 60° |
| 2026-04-27 09:32 | 12.74049 | -164.65993 | 34971 ft | 540 kts | 59° |
| 2026-04-27 09:32 | 12.77450 | -164.59170 | 34972 ft | 538 kts | 59° |
| 2026-04-27 09:33 | 12.80885 | -164.52277 | 34976 ft | 542 kts | 59° |
| 2026-04-27 09:33 | 12.84296 | -164.45425 | 34978 ft | 539 kts | 59° |
| 2026-04-27 09:34 | 12.87700 | -164.38582 | 34980 ft | 540 kts | 59° |
| 2026-04-27 09:34 | 12.91108 | -164.31725 | 34962 ft | 541 kts | 59° |
| 2026-04-27 09:35 | 12.94500 | -164.24895 | 34966 ft | 541 kts | 59° |
| 2026-04-27 09:35 | 12.97934 | -164.17975 | 34965 ft | 542 kts | 59° |
| 2026-04-27 09:36 | 13.01343 | -164.11099 | 34968 ft | 541 kts | 59° |
| 2026-04-27 09:36 | 13.04737 | -164.04248 | 34971 ft | 540 kts | 59° |
| 2026-04-27 09:37 | 13.08141 | -163.97374 | 34967 ft | 541 kts | 59° |
| 2026-04-27 09:37 | 13.11530 | -163.90520 | 34959 ft | 540 kts | 59° |
| 2026-04-27 09:38 | 13.14955 | -163.83591 | 34957 ft | 542 kts | 59° |
| 2026-04-27 09:38 | 13.18360 | -163.76695 | 34959 ft | 542 kts | 59° |
| 2026-04-27 09:39 | 13.21756 | -163.69814 | 34962 ft | 542 kts | 59° |
| 2026-04-27 09:39 | 13.25156 | -163.62915 | 34962 ft | 541 kts | 59° |
| 2026-04-27 09:40 | 13.28570 | -163.55988 | 34966 ft | 543 kts | 59° |
| 2026-04-27 09:40 | 13.31978 | -163.49063 | 34962 ft | 543 kts | 59° |
| 2026-04-27 09:41 | 13.35369 | -163.42166 | 34963 ft | 542 kts | 59° |
| 2026-04-27 09:41 | 13.38764 | -163.35255 | 34966 ft | 543 kts | 59° |
| 2026-04-27 09:42 | 13.42167 | -163.28326 | 34948 ft | 543 kts | 59° |
| 2026-04-27 09:42 | 13.45576 | -163.21376 | 34948 ft | 543 kts | 59° |
| 2026-04-27 09:43 | 13.48985 | -163.14423 | 34948 ft | 544 kts | 59° |
| 2026-04-27 09:43 | 13.52368 | -163.07513 | 34950 ft | 545 kts | 59° |
| 2026-04-27 09:44 | 13.55781 | -163.00539 | 34950 ft | 544 kts | 59° |
| 2026-04-27 09:44 | 13.59169 | -162.93608 | 34951 ft | 543 kts | 59° |
| 2026-04-27 09:45 | 13.62572 | -162.86642 | 34956 ft | 545 kts | 59° |
| 2026-04-27 09:45 | 13.65979 | -162.79660 | 34962 ft | 546 kts | 59° |
| 2026-04-27 09:46 | 13.69364 | -162.72719 | 34966 ft | 543 kts | 59° |
| 2026-04-27 09:46 | 13.72753 | -162.65765 | 34964 ft | 544 kts | 59° |
| 2026-04-27 09:47 | 13.76142 | -162.58801 | 34970 ft | 544 kts | 59° |
| 2026-04-27 09:47 | 13.79534 | -162.51829 | 34969 ft | 544 kts | 59° |
| 2026-04-27 09:48 | 13.82923 | -162.44855 | 34971 ft | 545 kts | 59° |
| 2026-04-27 09:48 | 13.86320 | -162.37859 | 34981 ft | 545 kts | 59° |
| 2026-04-27 09:49 | 13.89680 | -162.30931 | 34964 ft | 545 kts | 59° |
| 2026-04-27 09:49 | 13.93066 | -162.23947 | 34964 ft | 547 kts | 59° |
| 2026-04-27 09:50 | 13.96460 | -162.16936 | 34968 ft | 547 kts | 59° |
| 2026-04-27 09:50 | 13.99849 | -162.09933 | 34968 ft | 548 kts | 59° |
| 2026-04-27 09:51 | 14.03234 | -162.02928 | 34971 ft | 547 kts | 59° |
| 2026-04-27 09:51 | 14.06611 | -161.95937 | 34971 ft | 545 kts | 59° |
| 2026-04-27 09:52 | 14.09991 | -161.88933 | 34973 ft | 546 kts | 59° |
| 2026-04-27 09:52 | 14.13377 | -161.81909 | 34976 ft | 547 kts | 59° |
| 2026-04-27 09:53 | 14.16741 | -161.74925 | 34978 ft | 547 kts | 59° |
| 2026-04-27 09:53 | 14.20110 | -161.67926 | 34980 ft | 548 kts | 59° |
| 2026-04-27 09:54 | 14.23499 | -161.60875 | 34981 ft | 546 kts | 59° |
| 2026-04-27 09:54 | 14.26876 | -161.53845 | 34982 ft | 548 kts | 58° |
| 2026-04-27 09:55 | 14.30255 | -161.46803 | 34984 ft | 548 kts | 58° |
| 2026-04-27 09:55 | 14.35310 | -161.36261 | 34986 ft | 550 kts | 58° |
| 2026-04-27 09:56 | 14.38703 | -161.29172 | 34967 ft | 546 kts | 59° |
| 2026-04-27 09:56 | 14.42084 | -161.22107 | 34969 ft | 550 kts | 59° |
| 2026-04-27 09:57 | 14.45445 | -161.15074 | 34969 ft | 546 kts | 58° |
| 2026-04-27 09:57 | 14.48809 | -161.08029 | 34970 ft | 549 kts | 59° |
| 2026-04-27 09:58 | 14.52180 | -161.00963 | 34971 ft | 546 kts | 58° |
| 2026-04-27 09:58 | 14.55547 | -160.93898 | 34974 ft | 549 kts | 58° |
| 2026-04-27 09:59 | 14.58901 | -160.86855 | 34978 ft | 548 kts | 58° |
| 2026-04-27 09:59 | 14.62263 | -160.79790 | 34985 ft | 550 kts | 58° |
| 2026-04-27 10:00 | 14.65631 | -160.72702 | 34988 ft | 548 kts | 58° |
| 2026-04-27 10:00 | 14.68987 | -160.65634 | 34992 ft | 549 kts | 58° |
| 2026-04-27 10:01 | 14.72345 | -160.58554 | 34989 ft | 547 kts | 58° |
| 2026-04-27 10:01 | 14.75685 | -160.51508 | 34988 ft | 549 kts | 58° |
| 2026-04-27 10:02 | 14.79036 | -160.44431 | 34984 ft | 545 kts | 59° |
| 2026-04-27 10:02 | 14.82386 | -160.37346 | 34989 ft | 545 kts | 58° |
| 2026-04-27 10:03 | 14.85729 | -160.30276 | 34967 ft | 547 kts | 59° |
| 2026-04-27 10:03 | 14.89054 | -160.23233 | 34970 ft | 549 kts | 58° |
| 2026-04-27 10:04 | 14.92370 | -160.16203 | 34975 ft | 549 kts | 59° |
| 2026-04-27 10:04 | 14.95722 | -160.09087 | 34990 ft | 546 kts | 59° |
| 2026-04-27 10:05 | 14.99040 | -160.02040 | 34992 ft | 548 kts | 59° |
| 2026-04-27 10:05 | 15.02564 | -159.95016 | 34993 ft | 546 kts | 55° |
| 2026-04-27 10:06 | 15.06282 | -159.88182 | 34983 ft | 546 kts | 55° |
| 2026-04-27 10:06 | 15.09971 | -159.81361 | 34974 ft | 545 kts | 55° |
| 2026-04-27 10:07 | 15.13670 | -159.74497 | 34982 ft | 547 kts | 55° |
| 2026-04-27 10:07 | 15.17355 | -159.67638 | 34988 ft | 548 kts | 55° |
| 2026-04-27 10:08 | 15.21046 | -159.60750 | 34986 ft | 548 kts | 56° |
| 2026-04-27 10:08 | 15.24718 | -159.53889 | 34986 ft | 546 kts | 55° |
| 2026-04-27 10:09 | 15.28388 | -159.47026 | 34991 ft | 547 kts | 56° |
| 2026-04-27 10:09 | 15.32072 | -159.40126 | 34994 ft | 549 kts | 56° |
| 2026-04-27 10:10 | 15.35766 | -159.33195 | 34976 ft | 543 kts | 56° |
| 2026-04-27 10:10 | 15.39431 | -159.26321 | 34971 ft | 547 kts | 56° |
| 2026-04-27 10:11 | 15.43109 | -159.19412 | 34975 ft | 550 kts | 56° |
| 2026-04-27 10:11 | 15.46778 | -159.12511 | 34976 ft | 547 kts | 55° |
| 2026-04-27 10:12 | 15.50438 | -159.05623 | 34983 ft | 549 kts | 56° |
| 2026-04-27 10:12 | 15.54110 | -158.98704 | 34983 ft | 546 kts | 56° |
| 2026-04-27 10:13 | 15.57806 | -158.91736 | 34977 ft | 547 kts | 56° |
| 2026-04-27 10:13 | 15.61474 | -158.84813 | 34982 ft | 549 kts | 56° |
| 2026-04-27 10:14 | 15.65147 | -158.77873 | 34979 ft | 547 kts | 56° |
| 2026-04-27 10:14 | 15.68793 | -158.70976 | 34974 ft | 545 kts | 56° |
| 2026-04-27 10:15 | 15.72453 | -158.64050 | 34980 ft | 549 kts | 56° |
| 2026-04-27 10:15 | 15.76118 | -158.57106 | 34981 ft | 546 kts | 56° |
| 2026-04-27 10:16 | 15.79761 | -158.50195 | 34985 ft | 548 kts | 56° |
| 2026-04-27 10:16 | 15.83432 | -158.43228 | 34986 ft | 547 kts | 57° |
| 2026-04-27 10:17 | 15.87091 | -158.36276 | 34988 ft | 550 kts | 56° |
| 2026-04-27 10:17 | 15.90755 | -158.29306 | 34966 ft | 551 kts | 57° |
| 2026-04-27 10:18 | 15.94407 | -158.22353 | 34967 ft | 550 kts | 56° |
| 2026-04-27 10:18 | 15.98062 | -158.15387 | 34966 ft | 548 kts | 57° |
| 2026-04-27 10:19 | 16.01727 | -158.08394 | 34970 ft | 550 kts | 56° |
| 2026-04-27 10:19 | 16.05375 | -158.01430 | 34966 ft | 549 kts | 57° |
| 2026-04-27 10:20 | 16.09009 | -157.94484 | 34977 ft | 552 kts | 57° |
| 2026-04-27 10:20 | 16.12652 | -157.87511 | 34979 ft | 547 kts | 57° |
| 2026-04-27 10:21 | 16.16306 | -157.80516 | 34981 ft | 552 kts | 57° |
| 2026-04-27 10:21 | 16.19953 | -157.73523 | 34980 ft | 551 kts | 57° |
| 2026-04-27 10:22 | 16.23578 | -157.66563 | 34984 ft | 545 kts | 57° |
| 2026-04-27 10:22 | 16.27215 | -157.59578 | 34988 ft | 545 kts | 57° |
| 2026-04-27 10:23 | 16.30838 | -157.52614 | 34989 ft | 549 kts | 57° |
| 2026-04-27 10:23 | 16.34456 | -157.45650 | 34994 ft | 549 kts | 57° |
| 2026-04-27 10:24 | 16.38105 | -157.38619 | 35000 ft | 548 kts | 57° |
| 2026-04-27 10:24 | 16.41722 | -157.31642 | 34969 ft | 547 kts | 57° |
| 2026-04-27 10:25 | 16.45339 | -157.24660 | 34982 ft | 548 kts | 57° |
| 2026-04-27 10:25 | 16.48955 | -157.17673 | 34969 ft | 551 kts | 57° |
| 2026-04-27 10:26 | 16.52560 | -157.10700 | 34979 ft | 549 kts | 58° |
| 2026-04-27 10:26 | 16.56202 | -157.03645 | 34986 ft | 552 kts | 57° |
| 2026-04-27 10:27 | 16.59806 | -156.96660 | 34984 ft | 551 kts | 58° |
| 2026-04-27 10:27 | 16.63418 | -156.89650 | 34985 ft | 550 kts | 57° |
| 2026-04-27 10:28 | 16.67068 | -156.82561 | 34987 ft | 552 kts | 57° |
| 2026-04-27 10:28 | 16.70674 | -156.75548 | 34993 ft | 548 kts | 57° |
| 2026-04-27 10:29 | 16.74273 | -156.68544 | 34992 ft | 549 kts | 57° |
| 2026-04-27 10:29 | 16.77873 | -156.61528 | 35002 ft | 548 kts | 57° |
| 2026-04-27 10:30 | 16.81460 | -156.54532 | 34998 ft | 548 kts | 57° |
| 2026-04-27 10:30 | 16.85062 | -156.47499 | 34998 ft | 548 kts | 57° |
| 2026-04-27 10:31 | 16.88669 | -156.40451 | 34999 ft | 552 kts | 57° |
| 2026-04-27 10:31 | 16.92279 | -156.33386 | 34984 ft | 549 kts | 58° |
| 2026-04-27 10:32 | 16.95856 | -156.26379 | 34981 ft | 552 kts | 58° |
| 2026-04-27 10:32 | 16.99475 | -156.19282 | 34985 ft | 547 kts | 57° |
| 2026-04-27 10:33 | 17.03062 | -156.12244 | 34993 ft | 551 kts | 57° |
| 2026-04-27 10:33 | 17.06648 | -156.05197 | 34998 ft | 551 kts | 58° |
| 2026-04-27 10:34 | 17.10258 | -155.98097 | 34994 ft | 553 kts | 58° |
| 2026-04-27 10:34 | 17.13840 | -155.91038 | 34995 ft | 545 kts | 58° |
| 2026-04-27 10:35 | 17.17420 | -155.83984 | 34996 ft | 550 kts | 58° |
| 2026-04-27 10:35 | 17.20993 | -155.76932 | 35002 ft | 547 kts | 57° |
| 2026-04-27 10:36 | 17.24562 | -155.69882 | 34998 ft | 548 kts | 57° |
| 2026-04-27 10:36 | 17.28125 | -155.62837 | 35012 ft | 551 kts | 57° |
| 2026-04-27 10:37 | 17.31694 | -155.55771 | 35002 ft | 551 kts | 57° |
| 2026-04-27 10:37 | 17.35254 | -155.48712 | 35009 ft | 545 kts | 57° |
| 2026-04-27 10:38 | 17.38795 | -155.41687 | 35001 ft | 545 kts | 56° |
| 2026-04-27 10:38 | 17.42329 | -155.34672 | 35003 ft | 551 kts | 57° |
| 2026-04-27 10:39 | 17.45887 | -155.27594 | 34988 ft | 545 kts | 56° |
| 2026-04-27 10:39 | 17.49413 | -155.20577 | 34983 ft | 545 kts | 57° |
| 2026-04-27 10:40 | 17.52955 | -155.13522 | 34987 ft | 549 kts | 57° |
| 2026-04-27 10:40 | 17.56459 | -155.06526 | 34993 ft | 543 kts | 56° |
| 2026-04-27 10:41 | 17.59993 | -154.99474 | 34996 ft | 548 kts | 56° |
| 2026-04-27 10:41 | 17.63492 | -154.92476 | 35000 ft | 544 kts | 56° |
| 2026-04-27 10:42 | 17.67002 | -154.85449 | 35007 ft | 542 kts | 56° |
| 2026-04-27 10:42 | 17.70491 | -154.78462 | 35010 ft | 546 kts | 56° |
| 2026-04-27 10:43 | 17.74002 | -154.71420 | 35011 ft | 545 kts | 57° |
| 2026-04-27 10:43 | 17.77487 | -154.64418 | 35014 ft | 542 kts | 56° |
| 2026-04-27 10:44 | 17.80973 | -154.57414 | 35015 ft | 543 kts | 56° |
| 2026-04-27 10:44 | 17.84437 | -154.50442 | 35009 ft | 543 kts | 57° |
| 2026-04-27 10:45 | 17.87932 | -154.43399 | 35024 ft | 540 kts | 57° |
| 2026-04-27 10:45 | 17.91399 | -154.36406 | 35023 ft | 539 kts | 56° |
| 2026-04-27 10:46 | 17.94843 | -154.29451 | 34997 ft | 535 kts | 57° |
| 2026-04-27 10:46 | 17.98292 | -154.22482 | 35005 ft | 537 kts | 57° |
| 2026-04-27 10:47 | 18.01734 | -154.15517 | 35013 ft | 541 kts | 57° |
| 2026-04-27 10:47 | 18.05179 | -154.08537 | 35008 ft | 540 kts | 57° |
| 2026-04-27 10:48 | 18.08606 | -154.01582 | 35009 ft | 533 kts | 56° |
| 2026-04-27 10:48 | 18.12058 | -153.94575 | 35015 ft | 535 kts | 57° |
| 2026-04-27 10:49 | 18.15479 | -153.87622 | 35031 ft | 533 kts | 57° |
| 2026-04-27 10:49 | 18.18882 | -153.80698 | 35013 ft | 534 kts | 57° |
| 2026-04-27 10:50 | 18.22294 | -153.73747 | 35025 ft | 535 kts | 57° |
| 2026-04-27 10:50 | 18.25682 | -153.66836 | 35015 ft | 536 kts | 57° |
| 2026-04-27 10:51 | 18.29081 | -153.59895 | 35026 ft | 534 kts | 57° |
| 2026-04-27 10:51 | 18.32453 | -153.53001 | 35026 ft | 533 kts | 57° |
| 2026-04-27 10:52 | 18.35842 | -153.46065 | 35020 ft | 531 kts | 57° |
| 2026-04-27 10:52 | 18.39222 | -153.39140 | 35035 ft | 530 kts | 57° |
| 2026-04-27 10:53 | 18.44268 | -153.28790 | 35012 ft | 529 kts | 57° |
| 2026-04-27 10:54 | 18.47635 | -153.21874 | 35005 ft | 534 kts | 58° |
| 2026-04-27 10:54 | 18.51003 | -153.14944 | 35005 ft | 533 kts | 57° |
| 2026-04-27 10:55 | 18.54359 | -153.08031 | 35008 ft | 525 kts | 57° |
| 2026-04-27 10:55 | 18.57696 | -153.01154 | 35002 ft | 532 kts | 58° |
| 2026-04-27 10:56 | 18.61044 | -152.94241 | 35005 ft | 529 kts | 58° |
| 2026-04-27 10:56 | 18.64377 | -152.87355 | 35010 ft | 530 kts | 58° |
| 2026-04-27 10:57 | 18.67701 | -152.80478 | 35012 ft | 529 kts | 57° |
| 2026-04-27 10:57 | 18.71017 | -152.73608 | 35016 ft | 525 kts | 57° |
| 2026-04-27 10:58 | 18.74342 | -152.66716 | 35016 ft | 530 kts | 57° |
| 2026-04-27 10:58 | 18.77669 | -152.59811 | 35015 ft | 529 kts | 57° |
| 2026-04-27 10:59 | 18.81005 | -152.52875 | 35012 ft | 525 kts | 57° |
| 2026-04-27 10:59 | 18.84298 | -152.46024 | 35025 ft | 523 kts | 57° |
| 2026-04-27 11:00 | 18.89255 | -152.35695 | 35021 ft | 526 kts | 58° |
| 2026-04-27 11:00 | 18.92527 | -152.28867 | 35011 ft | 523 kts | 58° |
| 2026-04-27 11:01 | 18.95816 | -152.21995 | 35008 ft | 523 kts | 58° |
| 2026-04-27 11:01 | 18.99093 | -152.15141 | 35005 ft | 524 kts | 58° |
| 2026-04-27 11:02 | 19.02360 | -152.08298 | 35011 ft | 519 kts | 58° |
| 2026-04-27 11:02 | 19.05621 | -152.01465 | 35011 ft | 522 kts | 58° |
| 2026-04-27 11:03 | 19.08878 | -151.94629 | 35019 ft | 523 kts | 58° |
| 2026-04-27 11:03 | 19.12137 | -151.87779 | 35014 ft | 521 kts | 58° |
| 2026-04-27 11:04 | 19.15378 | -151.80959 | 35020 ft | 517 kts | 58° |
| 2026-04-27 11:04 | 19.18604 | -151.74165 | 35024 ft | 518 kts | 58° |
| 2026-04-27 11:05 | 19.21812 | -151.67401 | 35021 ft | 516 kts | 59° |
| 2026-04-27 11:05 | 19.25042 | -151.60582 | 35023 ft | 517 kts | 58° |
| 2026-04-27 11:06 | 19.28260 | -151.53780 | 35023 ft | 517 kts | 59° |
| 2026-04-27 11:06 | 19.31473 | -151.46979 | 35022 ft | 513 kts | 59° |
| 2026-04-27 11:07 | 19.34674 | -151.40199 | 35027 ft | 516 kts | 59° |
| 2026-04-27 11:07 | 19.37865 | -151.33429 | 35017 ft | 514 kts | 59° |
| 2026-04-27 11:08 | 19.41036 | -151.26695 | 35009 ft | 513 kts | 59° |
| 2026-04-27 11:08 | 19.44229 | -151.19907 | 35011 ft | 512 kts | 59° |
| 2026-04-27 11:09 | 19.47377 | -151.13207 | 35002 ft | 511 kts | 59° |
| 2026-04-27 11:09 | 19.50561 | -151.06419 | 35004 ft | 511 kts | 59° |
| 2026-04-27 11:10 | 19.53705 | -150.99712 | 35004 ft | 510 kts | 59° |
| 2026-04-27 11:10 | 19.56856 | -150.92981 | 35007 ft | 509 kts | 60° |
| 2026-04-27 11:11 | 19.59979 | -150.86301 | 35006 ft | 509 kts | 59° |
| 2026-04-27 11:11 | 19.63113 | -150.79590 | 35012 ft | 507 kts | 60° |
| 2026-04-27 11:12 | 19.66249 | -150.72870 | 35013 ft | 508 kts | 60° |
| 2026-04-27 11:12 | 19.69385 | -150.66136 | 35009 ft | 507 kts | 60° |
| 2026-04-27 11:13 | 19.72497 | -150.59450 | 35017 ft | 507 kts | 60° |
| 2026-04-27 11:13 | 19.75616 | -150.52740 | 35013 ft | 507 kts | 60° |
| 2026-04-27 11:14 | 19.78749 | -150.45991 | 35018 ft | 506 kts | 60° |
| 2026-04-27 11:14 | 19.81835 | -150.39336 | 35022 ft | 506 kts | 60° |
| 2026-04-27 11:15 | 19.84943 | -150.32625 | 35010 ft | 505 kts | 60° |
| 2026-04-27 11:15 | 19.88026 | -150.25960 | 35016 ft | 505 kts | 60° |
| 2026-04-27 11:16 | 19.91107 | -150.19292 | 35009 ft | 504 kts | 60° |
| 2026-04-27 11:16 | 19.94197 | -150.12596 | 35016 ft | 503 kts | 61° |
| 2026-04-27 11:17 | 19.97261 | -150.05949 | 35014 ft | 503 kts | 60° |
| 2026-04-27 11:17 | 20.00342 | -149.99258 | 35011 ft | 500 kts | 60° |
| 2026-04-27 11:18 | 20.04095 | -149.92989 | 35341 ft | 506 kts | 52° |
| 2026-04-27 11:18 | 20.06085 | -149.89925 | 35981 ft | 501 kts | 52° |
| 2026-04-27 11:18 | 20.08060 | -149.86862 | 36380 ft | 501 kts | 52° |
| 2026-04-27 11:19 | 20.10020 | -149.83798 | 36626 ft | 503 kts | 52° |
| 2026-04-27 11:19 | 20.11989 | -149.80701 | 36950 ft | 504 kts | 52° |
| 2026-04-27 11:19 | 20.15881 | -149.74536 | 37028 ft | 502 kts | 52° |
| 2026-04-27 11:20 | 20.19759 | -149.68358 | 37040 ft | 501 kts | 53° |
| 2026-04-27 11:20 | 20.23604 | -149.62209 | 37043 ft | 497 kts | 53° |
| 2026-04-27 11:21 | 20.27441 | -149.56059 | 37046 ft | 498 kts | 53° |
| 2026-04-27 11:21 | 20.31269 | -149.49911 | 37048 ft | 495 kts | 53° |
| 2026-04-27 11:22 | 20.35074 | -149.43791 | 37048 ft | 494 kts | 53° |
| 2026-04-27 11:22 | 20.38855 | -149.37701 | 37047 ft | 492 kts | 53° |
| 2026-04-27 11:23 | 20.42608 | -149.31651 | 37042 ft | 493 kts | 53° |
| 2026-04-27 11:23 | 20.46392 | -149.25542 | 37042 ft | 490 kts | 53° |
| 2026-04-27 11:24 | 20.50140 | -149.19484 | 37047 ft | 489 kts | 54° |
| 2026-04-27 11:24 | 20.53875 | -149.13443 | 37039 ft | 489 kts | 54° |
| 2026-04-27 11:25 | 20.57586 | -149.07433 | 37048 ft | 486 kts | 54° |
| 2026-04-27 11:25 | 20.61304 | -149.01407 | 37049 ft | 487 kts | 54° |
| 2026-04-27 11:26 | 20.65014 | -148.95386 | 37051 ft | 485 kts | 54° |
| 2026-04-27 11:26 | 20.68704 | -148.89391 | 37049 ft | 484 kts | 54° |
| 2026-04-27 11:27 | 20.72382 | -148.83409 | 37048 ft | 482 kts | 54° |
| 2026-04-27 11:27 | 20.76076 | -148.77394 | 37047 ft | 482 kts | 54° |
| 2026-04-27 11:28 | 20.79752 | -148.71405 | 37052 ft | 481 kts | 54° |
| 2026-04-27 11:28 | 20.83409 | -148.65439 | 37054 ft | 480 kts | 54° |
| 2026-04-27 11:29 | 20.87069 | -148.59462 | 37054 ft | 480 kts | 54° |
| 2026-04-27 11:29 | 20.90688 | -148.53545 | 37051 ft | 479 kts | 54° |
| 2026-04-27 11:30 | 20.94325 | -148.47592 | 37055 ft | 477 kts | 55° |
| 2026-04-27 11:30 | 20.97968 | -148.41625 | 37054 ft | 477 kts | 55° |
| 2026-04-27 11:31 | 21.01582 | -148.35696 | 37060 ft | 478 kts | 55° |
| 2026-04-27 11:31 | 21.05207 | -148.29747 | 37054 ft | 477 kts | 55° |
| 2026-04-27 11:32 | 21.08811 | -148.23824 | 37051 ft | 476 kts | 55° |
| 2026-04-27 11:32 | 21.12426 | -148.17876 | 37061 ft | 476 kts | 55° |
| 2026-04-27 11:33 | 21.16007 | -148.11977 | 37062 ft | 472 kts | 55° |
| 2026-04-27 11:33 | 21.19574 | -148.06096 | 37061 ft | 473 kts | 55° |
| 2026-04-27 11:34 | 21.23153 | -148.00189 | 37054 ft | 473 kts | 55° |
| 2026-04-27 11:34 | 21.26715 | -147.94304 | 37054 ft | 470 kts | 55° |
| 2026-04-27 11:35 | 21.30266 | -147.88432 | 37053 ft | 470 kts | 55° |
| 2026-04-27 11:35 | 21.33799 | -147.82581 | 37041 ft | 469 kts | 55° |
| 2026-04-27 11:36 | 21.37357 | -147.76685 | 37046 ft | 468 kts | 55° |
| 2026-04-27 11:36 | 21.40875 | -147.70848 | 37044 ft | 465 kts | 55° |
| 2026-04-27 11:37 | 21.44391 | -147.65008 | 37046 ft | 465 kts | 55° |
| 2026-04-27 11:37 | 21.47899 | -147.59175 | 37047 ft | 466 kts | 55° |
| 2026-04-27 11:38 | 21.51386 | -147.53371 | 37052 ft | 463 kts | 55° |
| 2026-04-27 11:38 | 21.54899 | -147.47517 | 37044 ft | 462 kts | 55° |
| 2026-04-27 11:39 | 21.58359 | -147.41746 | 37048 ft | 462 kts | 55° |
| 2026-04-27 11:39 | 21.61827 | -147.35956 | 37043 ft | 459 kts | 56° |
| 2026-04-27 11:40 | 21.65286 | -147.30174 | 37053 ft | 458 kts | 56° |
| 2026-04-27 11:40 | 21.68725 | -147.24420 | 37050 ft | 459 kts | 56° |
| 2026-04-27 11:41 | 21.72154 | -147.18675 | 37052 ft | 455 kts | 56° |
| 2026-04-27 11:41 | 21.75566 | -147.12955 | 37051 ft | 457 kts | 56° |
| 2026-04-27 11:42 | 21.78989 | -147.07210 | 37053 ft | 456 kts | 56° |
| 2026-04-27 11:42 | 21.82395 | -147.01486 | 37052 ft | 455 kts | 56° |
| 2026-04-27 11:43 | 21.85802 | -146.95755 | 37057 ft | 456 kts | 57° |
| 2026-04-27 11:43 | 21.89202 | -146.90030 | 37047 ft | 454 kts | 56° |
| 2026-04-27 11:44 | 21.92606 | -146.84293 | 37055 ft | 452 kts | 57° |
| 2026-04-27 11:44 | 21.95977 | -146.78603 | 37051 ft | 452 kts | 57° |
| 2026-04-27 11:45 | 21.98798 | -146.73837 | 37051 ft | 454 kts | 56° |
| 2026-04-27 11:45 | 22.02749 | -146.67157 | 37051 ft | 452 kts | 57° |
| 2026-04-27 11:46 | 22.06150 | -146.61400 | 37050 ft | 453 kts | 57° |
| 2026-04-27 11:46 | 22.09534 | -146.55664 | 37050 ft | 453 kts | 57° |
| 2026-04-27 11:47 | 22.12917 | -146.49927 | 37059 ft | 453 kts | 57° |
| 2026-04-27 11:47 | 22.16291 | -146.44196 | 37060 ft | 453 kts | 57° |
| 2026-04-27 11:48 | 22.19664 | -146.38460 | 37060 ft | 454 kts | 57° |
| 2026-04-27 11:48 | 22.23030 | -146.32732 | 37063 ft | 454 kts | 57° |
| 2026-04-27 11:49 | 22.26406 | -146.26979 | 37060 ft | 454 kts | 57° |
| 2026-04-27 11:49 | 22.29774 | -146.21234 | 37060 ft | 454 kts | 57° |
| 2026-04-27 11:50 | 22.33139 | -146.15489 | 37062 ft | 454 kts | 57° |
| 2026-04-27 11:50 | 22.36507 | -146.09732 | 37063 ft | 454 kts | 57° |
| 2026-04-27 11:51 | 22.39873 | -146.03973 | 37064 ft | 455 kts | 57° |
| 2026-04-27 11:52 | 22.44938 | -145.95293 | 37063 ft | 455 kts | 57° |
| 2026-04-27 11:52 | 22.48301 | -145.89523 | 37064 ft | 454 kts | 57° |
| 2026-04-27 11:53 | 22.51661 | -145.83751 | 37064 ft | 455 kts | 57° |
| 2026-04-27 11:53 | 22.55024 | -145.77968 | 37064 ft | 455 kts | 57° |
| 2026-04-27 11:54 | 22.58396 | -145.72162 | 37067 ft | 455 kts | 57° |
| 2026-04-27 11:54 | 22.61761 | -145.66363 | 37069 ft | 455 kts | 57° |
| 2026-04-27 11:55 | 22.65127 | -145.60555 | 37065 ft | 455 kts | 57° |
| 2026-04-27 11:55 | 22.68494 | -145.54739 | 37065 ft | 456 kts | 57° |
| 2026-04-27 11:56 | 22.71855 | -145.48927 | 37069 ft | 455 kts | 57° |
| 2026-04-27 11:56 | 22.75217 | -145.43108 | 37066 ft | 457 kts | 57° |
| 2026-04-27 11:57 | 22.78576 | -145.37286 | 37069 ft | 456 kts | 56° |
| 2026-04-27 11:57 | 22.81942 | -145.31444 | 37072 ft | 456 kts | 57° |
| 2026-04-27 11:58 | 22.85280 | -145.25645 | 37071 ft | 457 kts | 57° |
| 2026-04-27 11:58 | 22.88640 | -145.19804 | 37072 ft | 458 kts | 57° |
| 2026-04-27 11:59 | 22.91999 | -145.13957 | 37070 ft | 458 kts | 57° |
| 2026-04-27 11:59 | 22.95361 | -145.08096 | 37071 ft | 458 kts | 57° |
| 2026-04-27 12:00 | 22.98721 | -145.02234 | 37073 ft | 458 kts | 57° |
| 2026-04-27 12:00 | 23.02167 | -144.96445 | 37072 ft | 457 kts | 54° |
| 2026-04-27 12:01 | 23.05761 | -144.90781 | 37072 ft | 459 kts | 54° |
| 2026-04-27 12:01 | 23.09398 | -144.85022 | 37066 ft | 460 kts | 54° |
| 2026-04-27 12:02 | 23.12983 | -144.79323 | 37078 ft | 460 kts | 54° |
| 2026-04-27 12:02 | 23.16582 | -144.73589 | 37080 ft | 460 kts | 54° |
| 2026-04-27 12:03 | 23.20192 | -144.67827 | 37078 ft | 461 kts | 54° |
| 2026-04-27 12:03 | 23.23800 | -144.62061 | 37086 ft | 460 kts | 54° |
| 2026-04-27 12:04 | 23.27380 | -144.56331 | 37081 ft | 461 kts | 54° |
| 2026-04-27 12:04 | 23.30967 | -144.50583 | 37079 ft | 461 kts | 54° |
| 2026-04-27 12:05 | 23.34587 | -144.44774 | 37083 ft | 461 kts | 54° |
| 2026-04-27 12:05 | 23.38180 | -144.39004 | 37081 ft | 461 kts | 54° |
| 2026-04-27 12:06 | 23.41770 | -144.33231 | 37087 ft | 463 kts | 54° |
| 2026-04-27 12:06 | 23.45364 | -144.27446 | 37084 ft | 461 kts | 54° |
| 2026-04-27 12:07 | 23.48943 | -144.21677 | 37084 ft | 461 kts | 54° |
| 2026-04-27 12:07 | 23.52543 | -144.15868 | 37083 ft | 461 kts | 54° |
| 2026-04-27 12:08 | 23.56127 | -144.10078 | 37086 ft | 460 kts | 54° |
| 2026-04-27 12:08 | 23.59677 | -144.04338 | 37087 ft | 459 kts | 54° |
| 2026-04-27 12:09 | 23.63247 | -143.98557 | 37089 ft | 461 kts | 54° |
| 2026-04-27 12:09 | 23.66822 | -143.92763 | 37086 ft | 462 kts | 53° |
| 2026-04-27 12:10 | 23.70392 | -143.86969 | 37086 ft | 461 kts | 53° |
| 2026-04-27 12:10 | 23.73974 | -143.81149 | 37085 ft | 461 kts | 53° |
| 2026-04-27 12:11 | 23.77552 | -143.75330 | 37085 ft | 463 kts | 53° |
| 2026-04-27 12:11 | 23.81115 | -143.69528 | 37084 ft | 462 kts | 53° |
| 2026-04-27 12:12 | 23.84699 | -143.63686 | 37082 ft | 461 kts | 53° |
| 2026-04-27 12:12 | 23.88247 | -143.57893 | 37084 ft | 460 kts | 53° |
| 2026-04-27 12:13 | 23.91804 | -143.52081 | 37082 ft | 461 kts | 53° |
| 2026-04-27 12:13 | 23.95365 | -143.46257 | 37081 ft | 462 kts | 53° |
| 2026-04-27 12:14 | 23.98934 | -143.40410 | 37082 ft | 464 kts | 53° |
| 2026-04-27 12:14 | 24.02510 | -143.34546 | 37078 ft | 465 kts | 54° |
| 2026-04-27 12:15 | 24.06093 | -143.28662 | 37077 ft | 464 kts | 53° |
| 2026-04-27 12:15 | 24.09678 | -143.22769 | 37079 ft | 463 kts | 53° |
| 2026-04-27 12:16 | 24.13233 | -143.16919 | 37084 ft | 464 kts | 53° |
| 2026-04-27 12:16 | 24.16800 | -143.11043 | 37081 ft | 463 kts | 53° |
| 2026-04-27 12:17 | 24.20364 | -143.05164 | 37079 ft | 464 kts | 53° |
| 2026-04-27 12:17 | 24.23930 | -142.99274 | 37083 ft | 464 kts | 53° |
| 2026-04-27 12:18 | 24.27496 | -142.93376 | 37083 ft | 464 kts | 53° |
| 2026-04-27 12:18 | 24.31043 | -142.87503 | 37083 ft | 464 kts | 53° |
| 2026-04-27 12:19 | 24.34606 | -142.81598 | 37082 ft | 465 kts | 53° |
| 2026-04-27 12:19 | 24.38166 | -142.75691 | 37085 ft | 465 kts | 53° |
| 2026-04-27 12:20 | 24.41724 | -142.69778 | 37085 ft | 464 kts | 53° |
| 2026-04-27 12:20 | 24.45269 | -142.63881 | 37084 ft | 464 kts | 53° |
| 2026-04-27 12:21 | 24.48815 | -142.57976 | 37085 ft | 465 kts | 53° |
| 2026-04-27 12:21 | 24.52382 | -142.52028 | 37088 ft | 466 kts | 53° |
| 2026-04-27 12:22 | 24.55926 | -142.46112 | 37087 ft | 466 kts | 53° |
| 2026-04-27 12:22 | 24.59489 | -142.40155 | 37086 ft | 466 kts | 53° |
| 2026-04-27 12:23 | 24.63017 | -142.34250 | 37086 ft | 465 kts | 53° |
| 2026-04-27 12:23 | 24.66569 | -142.28297 | 37086 ft | 466 kts | 53° |
| 2026-04-27 12:24 | 24.70126 | -142.22330 | 37086 ft | 465 kts | 53° |
| 2026-04-27 12:24 | 24.73658 | -142.16396 | 37085 ft | 465 kts | 53° |
| 2026-04-27 12:25 | 24.77201 | -142.10437 | 37089 ft | 467 kts | 52° |
| 2026-04-27 12:25 | 24.80741 | -142.04475 | 37089 ft | 465 kts | 52° |
| 2026-04-27 12:26 | 24.84290 | -141.98492 | 37089 ft | 467 kts | 52° |
| 2026-04-27 12:26 | 24.87824 | -141.92526 | 37089 ft | 467 kts | 52° |
| 2026-04-27 12:27 | 24.91370 | -141.86533 | 37088 ft | 467 kts | 52° |
| 2026-04-27 12:27 | 24.94904 | -141.80550 | 37089 ft | 466 kts | 52° |
| 2026-04-27 12:28 | 24.98444 | -141.74551 | 37090 ft | 467 kts | 52° |
| 2026-04-27 12:28 | 25.01992 | -141.68532 | 37089 ft | 467 kts | 52° |
| 2026-04-27 12:29 | 25.05499 | -141.62573 | 37094 ft | 467 kts | 52° |
| 2026-04-27 12:29 | 25.09046 | -141.56541 | 37092 ft | 468 kts | 52° |
| 2026-04-27 12:30 | 25.12576 | -141.50529 | 37104 ft | 469 kts | 52° |
| 2026-04-27 12:30 | 25.16121 | -141.44482 | 37105 ft | 468 kts | 52° |
| 2026-04-27 12:31 | 25.19638 | -141.38478 | 37105 ft | 468 kts | 52° |
| 2026-04-27 12:31 | 25.23191 | -141.32405 | 37099 ft | 469 kts | 52° |
| 2026-04-27 12:32 | 25.26708 | -141.26382 | 37102 ft | 469 kts | 52° |
| 2026-04-27 12:32 | 25.30248 | -141.20316 | 37101 ft | 469 kts | 52° |
| 2026-04-27 12:33 | 25.33771 | -141.14270 | 37103 ft | 469 kts | 52° |
| 2026-04-27 12:33 | 25.37304 | -141.08199 | 37104 ft | 472 kts | 52° |
| 2026-04-27 12:34 | 25.40822 | -141.02144 | 37102 ft | 470 kts | 52° |
| 2026-04-27 12:34 | 25.44354 | -140.96060 | 37106 ft | 469 kts | 52° |
| 2026-04-27 12:35 | 25.47880 | -140.89977 | 37107 ft | 470 kts | 52° |
| 2026-04-27 12:35 | 25.51419 | -140.83865 | 37108 ft | 469 kts | 52° |
| 2026-04-27 12:36 | 25.54950 | -140.77757 | 37112 ft | 471 kts | 52° |
| 2026-04-27 12:36 | 25.58464 | -140.71674 | 37111 ft | 471 kts | 52° |
| 2026-04-27 12:37 | 25.61989 | -140.65559 | 37108 ft | 470 kts | 52° |
| 2026-04-27 12:37 | 25.65529 | -140.59413 | 37112 ft | 472 kts | 52° |
| 2026-04-27 12:38 | 25.69051 | -140.53288 | 37114 ft | 471 kts | 52° |
| 2026-04-27 12:38 | 25.72547 | -140.47201 | 37110 ft | 471 kts | 52° |
| 2026-04-27 12:39 | 25.76079 | -140.41046 | 37110 ft | 471 kts | 52° |
| 2026-04-27 12:39 | 25.79581 | -140.34932 | 37103 ft | 471 kts | 52° |
| 2026-04-27 12:40 | 25.83087 | -140.28806 | 37099 ft | 472 kts | 52° |
| 2026-04-27 12:40 | 25.86593 | -140.22669 | 37095 ft | 470 kts | 52° |
| 2026-04-27 12:41 | 25.90095 | -140.16531 | 37093 ft | 473 kts | 52° |
| 2026-04-27 12:41 | 25.93603 | -140.10375 | 37097 ft | 472 kts | 52° |
| 2026-04-27 12:42 | 25.97109 | -140.04215 | 37091 ft | 473 kts | 52° |
| 2026-04-27 12:42 | 26.00620 | -139.98036 | 37096 ft | 474 kts | 52° |
| 2026-04-27 12:43 | 26.04130 | -139.91852 | 37096 ft | 472 kts | 52° |
| 2026-04-27 12:43 | 26.07642 | -139.85657 | 37093 ft | 474 kts | 52° |
| 2026-04-27 12:44 | 26.11132 | -139.79489 | 37117 ft | 473 kts | 52° |
| 2026-04-27 12:44 | 26.14623 | -139.73314 | 37119 ft | 474 kts | 52° |
| 2026-04-27 12:45 | 26.18132 | -139.67097 | 37111 ft | 473 kts | 52° |
| 2026-04-27 12:45 | 26.21621 | -139.60908 | 37103 ft | 474 kts | 52° |
| 2026-04-27 12:46 | 26.25122 | -139.54691 | 37106 ft | 475 kts | 51° |
| 2026-04-27 12:46 | 26.28628 | -139.48454 | 37109 ft | 476 kts | 51° |
| 2026-04-27 12:47 | 26.32124 | -139.42227 | 37109 ft | 475 kts | 51° |
| 2026-04-27 12:47 | 26.35629 | -139.35974 | 37110 ft | 476 kts | 51° |
| 2026-04-27 12:48 | 26.39138 | -139.29709 | 37104 ft | 477 kts | 51° |
| 2026-04-27 12:48 | 26.42650 | -139.23425 | 37101 ft | 477 kts | 52° |
| 2026-04-27 12:49 | 26.46139 | -139.17177 | 37107 ft | 477 kts | 51° |
| 2026-04-27 12:49 | 26.49649 | -139.10883 | 37102 ft | 478 kts | 52° |
| 2026-04-27 12:50 | 26.53146 | -139.04601 | 37103 ft | 478 kts | 51° |
| 2026-04-27 12:50 | 26.56679 | -138.98247 | 37106 ft | 478 kts | 51° |
| 2026-04-27 12:51 | 26.60171 | -138.91954 | 37109 ft | 478 kts | 51° |
| 2026-04-27 12:51 | 26.63684 | -138.85623 | 37106 ft | 483 kts | 51° |
| 2026-04-27 12:52 | 26.67209 | -138.79254 | 37104 ft | 483 kts | 51° |
| 2026-04-27 12:52 | 26.70731 | -138.72882 | 37103 ft | 483 kts | 51° |
| 2026-04-27 12:53 | 26.76009 | -138.63318 | 37107 ft | 481 kts | 51° |
| 2026-04-27 12:53 | 26.79543 | -138.56903 | 37105 ft | 484 kts | 51° |
| 2026-04-27 12:54 | 26.83069 | -138.50493 | 37103 ft | 484 kts | 51° |
| 2026-04-27 12:54 | 26.86592 | -138.44081 | 37106 ft | 486 kts | 51° |
| 2026-04-27 12:55 | 26.90109 | -138.37668 | 37108 ft | 487 kts | 51° |
| 2026-04-27 12:55 | 26.93653 | -138.31198 | 37093 ft | 489 kts | 51° |
| 2026-04-27 12:56 | 26.97201 | -138.24710 | 37094 ft | 488 kts | 51° |
| 2026-04-27 12:56 | 27.00942 | -138.18455 | 37094 ft | 479 kts | 43° |
| 2026-04-27 12:57 | 27.05246 | -138.12747 | 37086 ft | 481 kts | 41° |
| 2026-04-27 12:57 | 27.09553 | -138.07036 | 37089 ft | 480 kts | 42° |
| 2026-04-27 12:58 | 27.13858 | -138.01302 | 37097 ft | 483 kts | 42° |
| 2026-04-27 12:58 | 27.18195 | -137.95505 | 37105 ft | 486 kts | 42° |
| 2026-04-27 12:59 | 27.22498 | -137.89739 | 37104 ft | 483 kts | 41° |
| 2026-04-27 12:59 | 27.26807 | -137.83954 | 37099 ft | 483 kts | 42° |
| 2026-04-27 13:00 | 27.31133 | -137.78143 | 37105 ft | 487 kts | 42° |
| 2026-04-27 13:00 | 27.35476 | -137.72296 | 37106 ft | 486 kts | 41° |
| 2026-04-27 13:01 | 27.39832 | -137.66423 | 37099 ft | 487 kts | 41° |
| 2026-04-27 13:01 | 27.44185 | -137.60548 | 37112 ft | 491 kts | 41° |
| 2026-04-27 13:02 | 27.48540 | -137.54660 | 37110 ft | 489 kts | 41° |
| 2026-04-27 13:02 | 27.52897 | -137.48763 | 37101 ft | 491 kts | 41° |
| 2026-04-27 13:03 | 27.57262 | -137.42845 | 37112 ft | 493 kts | 41° |
| 2026-04-27 13:03 | 27.61640 | -137.36903 | 37105 ft | 495 kts | 41° |
| 2026-04-27 13:04 | 27.66052 | -137.30905 | 37089 ft | 495 kts | 42° |
| 2026-04-27 13:04 | 27.70457 | -137.24910 | 37085 ft | 498 kts | 42° |
| 2026-04-27 13:05 | 27.74863 | -137.18901 | 37091 ft | 495 kts | 42° |
| 2026-04-27 13:05 | 27.79273 | -137.12883 | 37081 ft | 498 kts | 42° |
| 2026-04-27 13:06 | 27.83682 | -137.06856 | 37089 ft | 499 kts | 42° |
| 2026-04-27 13:06 | 27.88114 | -137.00789 | 37092 ft | 499 kts | 42° |
| 2026-04-27 13:07 | 27.92554 | -136.94704 | 37086 ft | 502 kts | 42° |
| 2026-04-27 13:07 | 27.96992 | -136.88612 | 37091 ft | 505 kts | 42° |
| 2026-04-27 13:08 | 28.01440 | -136.82498 | 37108 ft | 505 kts | 42° |
| 2026-04-27 13:08 | 28.05886 | -136.76376 | 37096 ft | 506 kts | 43° |
| 2026-04-27 13:09 | 28.10362 | -136.70201 | 37093 ft | 503 kts | 42° |
| 2026-04-27 13:09 | 28.14817 | -136.64053 | 37102 ft | 508 kts | 42° |
| 2026-04-27 13:10 | 28.19303 | -136.57849 | 37095 ft | 506 kts | 42° |
| 2026-04-27 13:10 | 28.23776 | -136.51657 | 37106 ft | 510 kts | 43° |
| 2026-04-27 13:11 | 28.28251 | -136.45451 | 37106 ft | 510 kts | 43° |
| 2026-04-27 13:11 | 28.32741 | -136.39217 | 37100 ft | 511 kts | 43° |
| 2026-04-27 13:12 | 28.37221 | -136.32985 | 37090 ft | 511 kts | 43° |
| 2026-04-27 13:12 | 28.41695 | -136.26752 | 37092 ft | 514 kts | 44° |
| 2026-04-27 13:13 | 28.46204 | -136.20460 | 37088 ft | 511 kts | 43° |
| 2026-04-27 13:13 | 28.50687 | -136.14200 | 37088 ft | 513 kts | 44° |
| 2026-04-27 13:14 | 28.55214 | -136.07864 | 37096 ft | 514 kts | 44° |
| 2026-04-27 13:14 | 28.59718 | -136.01553 | 37087 ft | 515 kts | 44° |
| 2026-04-27 13:15 | 28.64226 | -135.95227 | 37097 ft | 518 kts | 44° |
| 2026-04-27 13:15 | 28.68740 | -135.88882 | 37094 ft | 517 kts | 44° |
| 2026-04-27 13:16 | 28.73266 | -135.82510 | 37100 ft | 517 kts | 44° |
| 2026-04-27 13:16 | 28.77794 | -135.76128 | 37094 ft | 519 kts | 45° |
| 2026-04-27 13:17 | 28.82299 | -135.69765 | 37091 ft | 516 kts | 45° |
| 2026-04-27 13:17 | 28.86832 | -135.63358 | 37102 ft | 519 kts | 45° |
| 2026-04-27 13:18 | 28.91338 | -135.56975 | 37098 ft | 518 kts | 45° |
| 2026-04-27 13:18 | 28.95879 | -135.50534 | 37098 ft | 520 kts | 45° |
| 2026-04-27 13:19 | 29.00389 | -135.44125 | 37097 ft | 517 kts | 45° |
| 2026-04-27 13:19 | 29.04919 | -135.37682 | 37104 ft | 518 kts | 45° |
| 2026-04-27 13:20 | 29.09422 | -135.31264 | 37082 ft | 521 kts | 46° |
| 2026-04-27 13:20 | 29.13995 | -135.24736 | 37086 ft | 521 kts | 46° |
| 2026-04-27 13:21 | 29.18498 | -135.18297 | 37094 ft | 519 kts | 46° |
| 2026-04-27 13:21 | 29.23002 | -135.11848 | 37093 ft | 519 kts | 46° |
| 2026-04-27 13:22 | 29.27504 | -135.05394 | 37099 ft | 519 kts | 46° |
| 2026-04-27 13:22 | 29.32022 | -134.98904 | 37089 ft | 520 kts | 47° |
| 2026-04-27 13:23 | 29.36510 | -134.92448 | 37101 ft | 519 kts | 47° |
| 2026-04-27 13:23 | 29.40991 | -134.85991 | 37100 ft | 519 kts | 47° |
| 2026-04-27 13:24 | 29.45482 | -134.79511 | 37094 ft | 522 kts | 47° |
| 2026-04-27 13:24 | 29.49956 | -134.73042 | 37069 ft | 518 kts | 47° |
| 2026-04-27 13:25 | 29.54447 | -134.66542 | 37097 ft | 520 kts | 47° |
| 2026-04-27 13:25 | 29.58956 | -134.60004 | 37096 ft | 520 kts | 47° |
| 2026-04-27 13:26 | 29.63411 | -134.53534 | 37112 ft | 519 kts | 48° |
| 2026-04-27 13:26 | 29.67887 | -134.47023 | 37109 ft | 520 kts | 48° |
| 2026-04-27 13:27 | 29.72364 | -134.40498 | 37103 ft | 520 kts | 48° |
| 2026-04-27 13:27 | 29.76846 | -134.33958 | 37098 ft | 518 kts | 49° |
| 2026-04-27 13:28 | 29.81290 | -134.27463 | 37093 ft | 518 kts | 49° |
| 2026-04-27 13:28 | 29.85749 | -134.20935 | 37076 ft | 520 kts | 49° |
| 2026-04-27 13:29 | 29.90198 | -134.14410 | 37081 ft | 519 kts | 49° |
| 2026-04-27 13:29 | 29.94683 | -134.07825 | 37098 ft | 522 kts | 49° |
| 2026-04-27 13:30 | 29.99131 | -134.01280 | 37184 ft | 520 kts | 49° |
| 2026-04-27 13:30 | 30.03776 | -133.94998 | 37103 ft | 516 kts | 44° |
| 2026-04-27 13:31 | 30.08663 | -133.88892 | 37104 ft | 515 kts | 44° |
| 2026-04-27 13:31 | 30.13516 | -133.82782 | 37101 ft | 516 kts | 45° |
| 2026-04-27 13:32 | 30.18335 | -133.76680 | 37108 ft | 515 kts | 45° |
| 2026-04-27 13:32 | 30.23156 | -133.70552 | 37113 ft | 517 kts | 45° |
| 2026-04-27 13:33 | 30.27978 | -133.64406 | 37108 ft | 516 kts | 45° |
| 2026-04-27 13:33 | 30.32783 | -133.58266 | 37113 ft | 515 kts | 45° |
| 2026-04-27 13:34 | 30.37585 | -133.52119 | 37116 ft | 515 kts | 45° |
| 2026-04-27 13:34 | 30.42387 | -133.45961 | 37115 ft | 514 kts | 45° |
| 2026-04-27 13:35 | 30.47190 | -133.39793 | 37125 ft | 516 kts | 45° |
| 2026-04-27 13:35 | 30.51984 | -133.33624 | 37121 ft | 514 kts | 46° |
| 2026-04-27 13:36 | 30.56829 | -133.27380 | 37113 ft | 515 kts | 46° |
| 2026-04-27 13:36 | 30.61601 | -133.21220 | 37121 ft | 516 kts | 46° |
| 2026-04-27 13:37 | 30.66412 | -133.14999 | 37123 ft | 515 kts | 46° |
| 2026-04-27 13:37 | 30.71203 | -133.08797 | 37120 ft | 516 kts | 46° |
| 2026-04-27 13:38 | 30.75990 | -133.02586 | 37127 ft | 515 kts | 46° |
| 2026-04-27 13:38 | 30.80771 | -132.96374 | 37140 ft | 515 kts | 46° |
| 2026-04-27 13:39 | 30.85512 | -132.90205 | 37134 ft | 513 kts | 46° |
| 2026-04-27 13:39 | 30.90257 | -132.84019 | 37132 ft | 515 kts | 46° |
| 2026-04-27 13:40 | 30.95027 | -132.77792 | 37142 ft | 514 kts | 46° |
| 2026-04-27 13:40 | 30.99790 | -132.71565 | 37144 ft | 514 kts | 46° |
| 2026-04-27 13:41 | 31.04538 | -132.65346 | 37144 ft | 514 kts | 46° |
| 2026-04-27 13:41 | 31.09269 | -132.59140 | 37153 ft | 514 kts | 46° |
| 2026-04-27 13:42 | 31.14018 | -132.52899 | 37142 ft | 512 kts | 47° |
| 2026-04-27 13:42 | 31.18753 | -132.46666 | 37139 ft | 513 kts | 47° |
| 2026-04-27 13:43 | 31.23453 | -132.40471 | 37146 ft | 513 kts | 47° |
| 2026-04-27 13:43 | 31.28161 | -132.34255 | 37144 ft | 513 kts | 47° |
| 2026-04-27 13:44 | 31.32891 | -132.27997 | 37139 ft | 511 kts | 47° |
| 2026-04-27 13:44 | 31.37605 | -132.21753 | 37137 ft | 513 kts | 47° |
| 2026-04-27 13:45 | 31.42296 | -132.15527 | 37141 ft | 512 kts | 47° |
| 2026-04-27 13:45 | 31.47017 | -132.09253 | 37135 ft | 511 kts | 47° |
| 2026-04-27 13:46 | 31.51673 | -132.03053 | 37141 ft | 510 kts | 47° |
| 2026-04-27 13:46 | 31.56348 | -131.96819 | 37138 ft | 510 kts | 47° |
| 2026-04-27 13:47 | 31.61030 | -131.90565 | 37139 ft | 511 kts | 48° |
| 2026-04-27 13:47 | 31.65713 | -131.84300 | 37141 ft | 508 kts | 48° |
| 2026-04-27 13:48 | 31.70368 | -131.78061 | 37141 ft | 510 kts | 47° |
| 2026-04-27 13:48 | 31.75029 | -131.71803 | 37146 ft | 509 kts | 47° |
| 2026-04-27 13:49 | 31.79687 | -131.65541 | 37146 ft | 509 kts | 47° |
| 2026-04-27 13:49 | 31.84327 | -131.59291 | 37142 ft | 508 kts | 47° |
| 2026-04-27 13:50 | 31.88976 | -131.53018 | 37148 ft | 510 kts | 48° |
| 2026-04-27 13:50 | 31.93624 | -131.46736 | 37146 ft | 508 kts | 48° |
| 2026-04-27 13:51 | 31.98266 | -131.40454 | 37146 ft | 509 kts | 48° |
| 2026-04-27 13:51 | 32.02860 | -131.34224 | 37149 ft | 507 kts | 49° |
| 2026-04-27 13:52 | 32.07511 | -131.27907 | 37138 ft | 509 kts | 48° |
| 2026-04-27 13:52 | 32.12115 | -131.21643 | 37144 ft | 508 kts | 48° |
| 2026-04-27 13:53 | 32.19005 | -131.12250 | 37147 ft | 507 kts | 48° |
| 2026-04-27 13:53 | 32.21292 | -131.09125 | 36928 ft | 505 kts | 48° |
| 2026-04-27 13:54 | 32.23582 | -131.05995 | 36979 ft | 505 kts | 48° |
| 2026-04-27 13:54 | 32.25888 | -131.02841 | 37118 ft | 507 kts | 48° |
| 2026-04-27 13:54 | 32.28181 | -130.99703 | 37139 ft | 507 kts | 48° |
| 2026-04-27 13:55 | 32.32777 | -130.93402 | 37147 ft | 506 kts | 48° |
| 2026-04-27 13:55 | 32.37358 | -130.87111 | 37148 ft | 506 kts | 48° |
| 2026-04-27 13:56 | 32.41957 | -130.80785 | 37154 ft | 505 kts | 48° |
| 2026-04-27 13:56 | 32.46518 | -130.74501 | 37154 ft | 504 kts | 48° |
| 2026-04-27 13:57 | 32.51068 | -130.68221 | 37151 ft | 503 kts | 48° |
| 2026-04-27 13:57 | 32.55604 | -130.61949 | 37153 ft | 503 kts | 48° |
| 2026-04-27 13:58 | 32.60157 | -130.55644 | 37153 ft | 503 kts | 48° |
| 2026-04-27 13:58 | 32.64684 | -130.49364 | 37154 ft | 503 kts | 48° |
| 2026-04-27 13:59 | 32.69229 | -130.43048 | 37156 ft | 501 kts | 48° |
| 2026-04-27 13:59 | 32.73750 | -130.36754 | 37159 ft | 503 kts | 48° |
| 2026-04-27 14:00 | 32.78288 | -130.30426 | 37152 ft | 501 kts | 49° |
| 2026-04-27 14:00 | 32.82763 | -130.24176 | 37154 ft | 499 kts | 49° |
| 2026-04-27 14:01 | 32.87301 | -130.17827 | 37153 ft | 500 kts | 49° |
| 2026-04-27 14:01 | 32.91765 | -130.11569 | 37157 ft | 498 kts | 49° |
| 2026-04-27 14:02 | 32.96249 | -130.05275 | 37158 ft | 497 kts | 49° |
| 2026-04-27 14:02 | 33.00689 | -129.99023 | 37157 ft | 497 kts | 50° |
| 2026-04-27 14:03 | 33.04950 | -129.92500 | 37159 ft | 498 kts | 52° |
| 2026-04-27 14:03 | 33.09146 | -129.86005 | 37155 ft | 498 kts | 51° |
| 2026-04-27 14:04 | 33.13377 | -129.79466 | 37161 ft | 498 kts | 51° |
| 2026-04-27 14:04 | 33.17626 | -129.72897 | 37155 ft | 498 kts | 51° |
| 2026-04-27 14:05 | 33.21862 | -129.66344 | 37146 ft | 498 kts | 51° |
| 2026-04-27 14:05 | 33.26066 | -129.59831 | 37150 ft | 496 kts | 52° |
| 2026-04-27 14:06 | 33.30277 | -129.53297 | 37151 ft | 496 kts | 52° |
| 2026-04-27 14:06 | 33.34466 | -129.46786 | 37148 ft | 494 kts | 52° |
| 2026-04-27 14:07 | 33.38654 | -129.40268 | 37151 ft | 494 kts | 52° |
| 2026-04-27 14:07 | 33.42858 | -129.33711 | 37151 ft | 495 kts | 52° |
| 2026-04-27 14:08 | 33.47008 | -129.27229 | 37156 ft | 488 kts | 53° |
| 2026-04-27 14:08 | 33.51132 | -129.20775 | 37150 ft | 487 kts | 53° |
| 2026-04-27 14:09 | 33.55257 | -129.14308 | 37151 ft | 487 kts | 53° |
| 2026-04-27 14:09 | 33.59317 | -129.07932 | 37154 ft | 482 kts | 53° |
| 2026-04-27 14:10 | 33.63371 | -129.01555 | 37149 ft | 480 kts | 53° |
| 2026-04-27 14:10 | 33.67416 | -128.95180 | 37149 ft | 482 kts | 53° |
| 2026-04-27 14:11 | 33.71466 | -128.88786 | 37144 ft | 477 kts | 53° |
| 2026-04-27 14:11 | 33.75461 | -128.82469 | 37149 ft | 477 kts | 53° |
| 2026-04-27 14:12 | 33.79488 | -128.76090 | 37145 ft | 479 kts | 53° |
| 2026-04-27 14:12 | 33.83500 | -128.69722 | 37139 ft | 479 kts | 53° |
| 2026-04-27 14:13 | 33.87494 | -128.63374 | 37141 ft | 479 kts | 53° |
| 2026-04-27 14:13 | 33.91524 | -128.56955 | 37149 ft | 480 kts | 53° |
| 2026-04-27 14:14 | 33.95549 | -128.50534 | 37138 ft | 480 kts | 52° |
| 2026-04-27 14:14 | 33.99563 | -128.44118 | 37139 ft | 480 kts | 52° |
| 2026-04-27 14:15 | 34.03573 | -128.37698 | 37138 ft | 479 kts | 52° |
| 2026-04-27 14:15 | 34.07560 | -128.31303 | 37128 ft | 479 kts | 53° |
| 2026-04-27 14:16 | 34.11549 | -128.24893 | 37127 ft | 480 kts | 53° |
| 2026-04-27 14:16 | 34.15537 | -128.18475 | 37132 ft | 477 kts | 53° |
| 2026-04-27 14:17 | 34.19530 | -128.12036 | 37132 ft | 478 kts | 53° |
| 2026-04-27 14:17 | 34.23509 | -128.05608 | 37124 ft | 476 kts | 53° |
| 2026-04-27 14:18 | 34.27461 | -127.99213 | 37117 ft | 475 kts | 53° |
| 2026-04-27 14:18 | 34.31394 | -127.92838 | 37115 ft | 475 kts | 53° |
| 2026-04-27 14:19 | 34.35343 | -127.86424 | 37116 ft | 473 kts | 53° |
| 2026-04-27 14:19 | 34.39275 | -127.80029 | 37112 ft | 472 kts | 53° |
| 2026-04-27 14:20 | 34.43181 | -127.73661 | 37118 ft | 475 kts | 53° |
| 2026-04-27 14:20 | 34.47116 | -127.67236 | 37124 ft | 473 kts | 53° |
| 2026-04-27 14:21 | 34.50992 | -127.60897 | 37120 ft | 470 kts | 53° |
| 2026-04-27 14:21 | 34.54877 | -127.54531 | 37125 ft | 470 kts | 54° |
| 2026-04-27 14:22 | 34.58738 | -127.48192 | 37103 ft | 466 kts | 53° |
| 2026-04-27 14:22 | 34.62591 | -127.41857 | 37126 ft | 469 kts | 53° |
| 2026-04-27 14:23 | 34.66418 | -127.35553 | 37113 ft | 464 kts | 53° |
| 2026-04-27 14:23 | 34.70246 | -127.29235 | 37108 ft | 463 kts | 54° |
| 2026-04-27 14:24 | 34.74050 | -127.22946 | 37108 ft | 463 kts | 54° |
| 2026-04-27 14:24 | 34.77844 | -127.16663 | 37115 ft | 463 kts | 54° |
| 2026-04-27 14:25 | 34.81637 | -127.10370 | 37107 ft | 462 kts | 54° |
| 2026-04-27 14:25 | 34.85442 | -127.04047 | 37097 ft | 461 kts | 54° |
| 2026-04-27 14:26 | 34.89216 | -126.97763 | 37096 ft | 459 kts | 54° |
| 2026-04-27 14:26 | 34.92955 | -126.91526 | 37097 ft | 460 kts | 54° |
| 2026-04-27 14:27 | 34.96740 | -126.85204 | 37099 ft | 459 kts | 54° |
| 2026-04-27 14:27 | 35.00485 | -126.78934 | 37097 ft | 458 kts | 54° |
| 2026-04-27 14:28 | 35.04224 | -126.72665 | 37091 ft | 458 kts | 54° |
| 2026-04-27 14:28 | 35.07960 | -126.66389 | 37095 ft | 458 kts | 53° |
| 2026-04-27 14:29 | 35.11691 | -126.60111 | 37095 ft | 458 kts | 53° |
| 2026-04-27 14:29 | 35.15411 | -126.53838 | 37097 ft | 458 kts | 53° |
| 2026-04-27 14:30 | 35.19148 | -126.47527 | 37096 ft | 457 kts | 53° |
| 2026-04-27 14:30 | 35.22868 | -126.41233 | 37100 ft | 457 kts | 53° |
| 2026-04-27 14:31 | 35.26602 | -126.34905 | 37101 ft | 457 kts | 54° |
| 2026-04-27 14:31 | 35.30302 | -126.28622 | 37099 ft | 457 kts | 54° |
| 2026-04-27 14:32 | 35.34007 | -126.22321 | 37098 ft | 456 kts | 54° |
| 2026-04-27 14:32 | 35.37714 | -126.16003 | 37096 ft | 458 kts | 54° |
| 2026-04-27 14:33 | 35.41418 | -126.09679 | 37091 ft | 456 kts | 53° |
| 2026-04-27 14:33 | 35.45110 | -126.03365 | 37093 ft | 457 kts | 53° |
| 2026-04-27 14:34 | 35.48812 | -125.97023 | 37092 ft | 456 kts | 53° |
| 2026-04-27 14:34 | 35.52509 | -125.90678 | 37087 ft | 456 kts | 53° |
| 2026-04-27 14:35 | 35.56188 | -125.84351 | 37088 ft | 456 kts | 53° |
| 2026-04-27 14:35 | 35.59856 | -125.78033 | 37090 ft | 456 kts | 53° |
| 2026-04-27 14:36 | 35.63531 | -125.71689 | 37090 ft | 455 kts | 53° |
| 2026-04-27 14:36 | 35.67205 | -125.65337 | 37088 ft | 456 kts | 53° |
| 2026-04-27 14:37 | 35.70850 | -125.59023 | 37086 ft | 455 kts | 53° |
| 2026-04-27 14:37 | 35.74498 | -125.52693 | 37091 ft | 455 kts | 53° |
| 2026-04-27 14:38 | 35.78143 | -125.46356 | 37092 ft | 456 kts | 53° |
| 2026-04-27 14:38 | 35.81821 | -125.39950 | 37089 ft | 454 kts | 53° |
| 2026-04-27 14:39 | 35.85446 | -125.33624 | 37089 ft | 455 kts | 53° |
| 2026-04-27 14:39 | 35.89091 | -125.27254 | 37089 ft | 454 kts | 53° |
| 2026-04-27 14:40 | 35.92716 | -125.20903 | 36749 ft | 447 kts | 53° |
| 2026-04-27 14:40 | 35.94516 | -125.17746 | 35998 ft | 449 kts | 53° |
| 2026-04-27 14:40 | 35.96290 | -125.14633 | 35201 ft | 452 kts | 53° |
| 2026-04-27 14:40 | 35.98097 | -125.11459 | 34322 ft | 455 kts | 53° |
| 2026-04-27 14:41 | 35.99912 | -125.08269 | 33378 ft | 457 kts | 53° |
| 2026-04-27 14:41 | 36.01746 | -125.05039 | 32491 ft | 457 kts | 53° |
| 2026-04-27 14:41 | 36.03545 | -125.01870 | 31631 ft | 457 kts | 53° |
| 2026-04-27 14:41 | 36.05373 | -124.98646 | 30777 ft | 456 kts | 52° |
| 2026-04-27 14:42 | 36.07167 | -124.95477 | 30280 ft | 448 kts | 52° |
| 2026-04-27 14:42 | 36.08943 | -124.92339 | 29814 ft | 440 kts | 52° |
| 2026-04-27 14:42 | 36.10670 | -124.89283 | 29317 ft | 434 kts | 52° |
| 2026-04-27 14:42 | 36.12387 | -124.86244 | 28811 ft | 428 kts | 52° |
| 2026-04-27 14:43 | 36.14084 | -124.83237 | 28301 ft | 423 kts | 52° |
| 2026-04-27 14:43 | 36.15745 | -124.80293 | 27783 ft | 418 kts | 52° |
| 2026-04-27 14:43 | 36.17396 | -124.77362 | 27273 ft | 413 kts | 52° |
| 2026-04-27 14:43 | 36.19049 | -124.74480 | 26807 ft | 407 kts | 49° |
| 2026-04-27 14:44 | 36.20833 | -124.71694 | 26763 ft | 417 kts | 48° |
| 2026-04-27 14:44 | 36.22655 | -124.68868 | 26706 ft | 424 kts | 48° |
| 2026-04-27 14:44 | 36.24479 | -124.66024 | 26577 ft | 423 kts | 48° |
| 2026-04-27 14:44 | 36.26295 | -124.63184 | 26435 ft | 422 kts | 48° |
| 2026-04-27 14:45 | 36.28112 | -124.60332 | 26288 ft | 422 kts | 48° |
| 2026-04-27 14:45 | 36.29917 | -124.57496 | 26143 ft | 420 kts | 48° |
| 2026-04-27 14:45 | 36.31743 | -124.54620 | 25995 ft | 419 kts | 48° |
| 2026-04-27 14:45 | 36.33527 | -124.51807 | 25855 ft | 419 kts | 48° |
| 2026-04-27 14:46 | 36.35338 | -124.48948 | 25708 ft | 418 kts | 48° |
| 2026-04-27 14:46 | 36.37131 | -124.46114 | 25567 ft | 417 kts | 48° |
| 2026-04-27 14:46 | 36.38919 | -124.43284 | 25421 ft | 415 kts | 48° |
| 2026-04-27 14:46 | 36.40699 | -124.40466 | 25279 ft | 415 kts | 47° |
| 2026-04-27 14:47 | 36.42475 | -124.37650 | 25139 ft | 414 kts | 47° |
| 2026-04-27 14:47 | 36.44239 | -124.34849 | 25000 ft | 413 kts | 48° |
| 2026-04-27 14:47 | 36.46024 | -124.32017 | 24855 ft | 414 kts | 48° |
| 2026-04-27 14:47 | 36.47773 | -124.29235 | 24719 ft | 413 kts | 48° |
| 2026-04-27 14:48 | 36.49548 | -124.26412 | 24580 ft | 412 kts | 48° |
| 2026-04-27 14:48 | 36.53091 | -124.20768 | 24288 ft | 410 kts | 48° |
| 2026-04-27 14:48 | 36.54840 | -124.17978 | 24148 ft | 410 kts | 48° |
| 2026-04-27 14:49 | 36.56591 | -124.15183 | 24008 ft | 409 kts | 48° |
| 2026-04-27 14:49 | 36.58284 | -124.12478 | 23872 ft | 408 kts | 47° |